<?xml version="1.0" encoding="UTF-8" standalone="no" ?>
<gpx xmlns="http://www.topografix.com/GPX/1/1" xmlns:xsi="http://www.w3.org/2001/XMLSchema-instance" xsi:schemaLocation="http://www.topografix.com/GPX/1/1 http://www.topografix.com/GPX/1/1/gpx.xsd" version="1.1" creator="VisuGPX - https://www.visugpx.com">
  <metadata>
    <name>Facibelle et Vieil Esclangon</name>
    <desc><![CDATA[Un site géologique superbe.
On commence par un aller retour au belvédère pour être face au vélodrome. Un crochet par le vieil Esclangon.
De bonnes montées, les points de vue se méritent !]]></desc>
  </metadata>
  <trk>
    <name><![CDATA[Facibelle Vieil Esclangon 1 SAH]]></name>
    <extensions>
      <line xmlns="http://www.topografix.com/GPX/gpx_style/0/2">
        <color>0000FF</color>
        <width>4</width>
      </line>
    </extensions>
    <trkseg>
      <trkpt lat="44.21324" lon="6.27594">
        <ele>809.7</ele>
        <time>2021-09-19T07:30:00.000Z</time>
      </trkpt>
      <trkpt lat="44.21333" lon="6.27599">
        <ele>809.8</ele>
        <time>2021-09-19T07:30:16.283Z</time>
      </trkpt>
      <trkpt lat="44.21343" lon="6.27603">
        <ele>811.3</ele>
        <time>2021-09-19T07:31:17.353Z</time>
      </trkpt>
      <trkpt lat="44.21353" lon="6.27604">
        <ele>811.9</ele>
        <time>2021-09-19T07:31:45.874Z</time>
      </trkpt>
      <trkpt lat="44.21364" lon="6.27607">
        <ele>813.2</ele>
        <time>2021-09-19T07:32:38.421Z</time>
      </trkpt>
      <trkpt lat="44.21375" lon="6.27609">
        <ele>814.1</ele>
        <time>2021-09-19T07:33:15.507Z</time>
      </trkpt>
      <trkpt lat="44.21385" lon="6.2761">
        <ele>814.7</ele>
        <time>2021-09-19T07:33:44.028Z</time>
      </trkpt>
      <trkpt lat="44.21396" lon="6.27612">
        <ele>815.9</ele>
        <time>2021-09-19T07:34:31.734Z</time>
      </trkpt>
      <trkpt lat="44.21405" lon="6.27615">
        <ele>817.2</ele>
        <time>2021-09-19T07:35:26.055Z</time>
      </trkpt>
      <trkpt lat="44.21414" lon="6.27616">
        <ele>817.8</ele>
        <time>2021-09-19T07:35:52.986Z</time>
      </trkpt>
      <trkpt lat="44.21423" lon="6.27612">
        <ele>816.3</ele>
        <time>2021-09-19T07:35:55.530Z</time>
      </trkpt>
      <trkpt lat="44.21432" lon="6.27601">
        <ele>812.8</ele>
        <time>2021-09-19T07:35:58.754Z</time>
      </trkpt>
      <trkpt lat="44.21438" lon="6.27591">
        <ele>809.8</ele>
        <time>2021-09-19T07:36:01.272Z</time>
      </trkpt>
      <trkpt lat="44.21443" lon="6.2758">
        <ele>807.7</ele>
        <time>2021-09-19T07:36:03.787Z</time>
      </trkpt>
      <trkpt lat="44.21452" lon="6.27574">
        <ele>807.5</ele>
        <time>2021-09-19T07:36:07.594Z</time>
      </trkpt>
      <trkpt lat="44.21461" lon="6.27569">
        <ele>807.2</ele>
        <time>2021-09-19T07:36:10.871Z</time>
      </trkpt>
      <trkpt lat="44.21471" lon="6.27567">
        <ele>806.8</ele>
        <time>2021-09-19T07:36:14.008Z</time>
      </trkpt>
      <trkpt lat="44.21481" lon="6.27568">
        <ele>806.5</ele>
        <time>2021-09-19T07:36:17.437Z</time>
      </trkpt>
      <trkpt lat="44.21491" lon="6.27571">
        <ele>806.4</ele>
        <time>2021-09-19T07:36:21.875Z</time>
      </trkpt>
      <trkpt lat="44.21501" lon="6.27577">
        <ele>806.5</ele>
        <time>2021-09-19T07:36:39.965Z</time>
      </trkpt>
      <trkpt lat="44.21511" lon="6.27585">
        <ele>806.6</ele>
        <time>2021-09-19T07:36:59.024Z</time>
      </trkpt>
      <trkpt lat="44.21531" lon="6.27609">
        <ele>811.1</ele>
        <time>2021-09-19T07:39:33.885Z</time>
      </trkpt>
      <trkpt lat="44.21517" lon="6.27607">
        <ele>811.3</ele>
        <time>2021-09-19T07:39:58.509Z</time>
      </trkpt>
      <trkpt lat="44.21514" lon="6.27611">
        <ele>812.4</ele>
        <time>2021-09-19T07:40:22.869Z</time>
      </trkpt>
      <trkpt lat="44.21511" lon="6.27615">
        <ele>813.5</ele>
        <time>2021-09-19T07:40:47.230Z</time>
      </trkpt>
      <trkpt lat="44.21506" lon="6.2762">
        <ele>814.6</ele>
        <time>2021-09-19T07:41:23.342Z</time>
      </trkpt>
      <trkpt lat="44.21502" lon="6.27626">
        <ele>816.2</ele>
        <time>2021-09-19T07:41:57.820Z</time>
      </trkpt>
      <trkpt lat="44.21497" lon="6.27625">
        <ele>816.2</ele>
        <time>2021-09-19T07:42:05.508Z</time>
      </trkpt>
      <trkpt lat="44.21494" lon="6.27632">
        <ele>817.8</ele>
        <time>2021-09-19T07:42:39.825Z</time>
      </trkpt>
      <trkpt lat="44.21491" lon="6.27633">
        <ele>818.2</ele>
        <time>2021-09-19T07:42:57.001Z</time>
      </trkpt>
      <trkpt lat="44.21487" lon="6.27633">
        <ele>818.4</ele>
        <time>2021-09-19T07:43:07.646Z</time>
      </trkpt>
      <trkpt lat="44.21479" lon="6.2764">
        <ele>820.7</ele>
        <time>2021-09-19T07:44:03.081Z</time>
      </trkpt>
      <trkpt lat="44.21476" lon="6.2764">
        <ele>821</ele>
        <time>2021-09-19T07:44:14.955Z</time>
      </trkpt>
      <trkpt lat="44.21475" lon="6.27643">
        <ele>821.8</ele>
        <time>2021-09-19T07:44:28.875Z</time>
      </trkpt>
      <trkpt lat="44.21479" lon="6.2765">
        <ele>823</ele>
        <time>2021-09-19T07:45:06.543Z</time>
      </trkpt>
      <trkpt lat="44.21485" lon="6.27656">
        <ele>824</ele>
        <time>2021-09-19T07:45:49.879Z</time>
      </trkpt>
      <trkpt lat="44.21486" lon="6.27661">
        <ele>824.9</ele>
        <time>2021-09-19T07:46:11.720Z</time>
      </trkpt>
      <trkpt lat="44.2148" lon="6.27661">
        <ele>825.5</ele>
        <time>2021-09-19T07:46:35.468Z</time>
      </trkpt>
      <trkpt lat="44.21476" lon="6.27663">
        <ele>826.4</ele>
        <time>2021-09-19T07:47:00.412Z</time>
      </trkpt>
      <trkpt lat="44.21472" lon="6.27663">
        <ele>826.7</ele>
        <time>2021-09-19T07:47:13.142Z</time>
      </trkpt>
      <trkpt lat="44.2147" lon="6.27664">
        <ele>827.1</ele>
        <time>2021-09-19T07:47:25.614Z</time>
      </trkpt>
      <trkpt lat="44.21469" lon="6.27668">
        <ele>828.2</ele>
        <time>2021-09-19T07:47:43.439Z</time>
      </trkpt>
      <trkpt lat="44.21469" lon="6.27674">
        <ele>829.5</ele>
        <time>2021-09-19T07:48:08.684Z</time>
      </trkpt>
      <trkpt lat="44.21474" lon="6.27688">
        <ele>831.7</ele>
        <time>2021-09-19T07:49:14.498Z</time>
      </trkpt>
      <trkpt lat="44.21476" lon="6.27693">
        <ele>832.1</ele>
        <time>2021-09-19T07:49:30.350Z</time>
      </trkpt>
      <trkpt lat="44.21475" lon="6.27697">
        <ele>833.1</ele>
        <time>2021-09-19T07:49:48.174Z</time>
      </trkpt>
      <trkpt lat="44.21469" lon="6.27697">
        <ele>834</ele>
        <time>2021-09-19T07:50:23.397Z</time>
      </trkpt>
      <trkpt lat="44.21466" lon="6.27708">
        <ele>836.7</ele>
        <time>2021-09-19T07:51:12.918Z</time>
      </trkpt>
      <trkpt lat="44.21464" lon="6.27712">
        <ele>838</ele>
        <time>2021-09-19T07:51:33.439Z</time>
      </trkpt>
      <trkpt lat="44.21461" lon="6.27715">
        <ele>839.3</ele>
        <time>2021-09-19T07:51:55.107Z</time>
      </trkpt>
      <trkpt lat="44.21461" lon="6.2772">
        <ele>840.3</ele>
        <time>2021-09-19T07:52:16.144Z</time>
      </trkpt>
      <trkpt lat="44.21461" lon="6.27731">
        <ele>842.8</ele>
        <time>2021-09-19T07:53:02.428Z</time>
      </trkpt>
      <trkpt lat="44.21461" lon="6.27738">
        <ele>844.2</ele>
        <time>2021-09-19T07:53:31.881Z</time>
      </trkpt>
      <trkpt lat="44.21458" lon="6.27742">
        <ele>845.7</ele>
        <time>2021-09-19T07:53:56.241Z</time>
      </trkpt>
      <trkpt lat="44.21454" lon="6.27743">
        <ele>847.1</ele>
        <time>2021-09-19T07:54:20.097Z</time>
      </trkpt>
      <trkpt lat="44.21451" lon="6.27741">
        <ele>847.4</ele>
        <time>2021-09-19T07:54:32.112Z</time>
      </trkpt>
      <trkpt lat="44.21447" lon="6.27727">
        <ele>845</ele>
        <time>2021-09-19T07:54:35.022Z</time>
      </trkpt>
      <trkpt lat="44.21443" lon="6.27722">
        <ele>844.4</ele>
        <time>2021-09-19T07:54:36.469Z</time>
      </trkpt>
      <trkpt lat="44.21436" lon="6.27713">
        <ele>843.7</ele>
        <time>2021-09-19T07:54:39.033Z</time>
      </trkpt>
      <trkpt lat="44.21433" lon="6.27712">
        <ele>844</ele>
        <time>2021-09-19T07:54:50.924Z</time>
      </trkpt>
      <trkpt lat="44.2143" lon="6.27713">
        <ele>845</ele>
        <time>2021-09-19T07:55:09.031Z</time>
      </trkpt>
      <trkpt lat="44.21424" lon="6.27718">
        <ele>847.6</ele>
        <time>2021-09-19T07:55:50.058Z</time>
      </trkpt>
      <trkpt lat="44.21418" lon="6.27721">
        <ele>849.6</ele>
        <time>2021-09-19T07:56:27.475Z</time>
      </trkpt>
      <trkpt lat="44.21403" lon="6.27722">
        <ele>849.5</ele>
        <time>2021-09-19T07:56:48.214Z</time>
      </trkpt>
      <trkpt lat="44.21389" lon="6.27723">
        <ele>849.3</ele>
        <time>2021-09-19T07:56:53.953Z</time>
      </trkpt>
      <trkpt lat="44.21377" lon="6.27721">
        <ele>848.1</ele>
        <time>2021-09-19T07:56:57.209Z</time>
      </trkpt>
      <trkpt lat="44.21374" lon="6.27721">
        <ele>847.9</ele>
        <time>2021-09-19T07:56:57.949Z</time>
      </trkpt>
      <trkpt lat="44.21368" lon="6.27723">
        <ele>848.4</ele>
        <time>2021-09-19T07:57:18.560Z</time>
      </trkpt>
      <trkpt lat="44.21364" lon="6.27726">
        <ele>849.2</ele>
        <time>2021-09-19T07:57:45.219Z</time>
      </trkpt>
      <trkpt lat="44.2136" lon="6.27735">
        <ele>851.6</ele>
        <time>2021-09-19T07:58:29.778Z</time>
      </trkpt>
      <trkpt lat="44.21358" lon="6.27748">
        <ele>855.7</ele>
        <time>2021-09-19T07:59:25.723Z</time>
      </trkpt>
      <trkpt lat="44.21352" lon="6.2776">
        <ele>857.9</ele>
        <time>2021-09-19T08:00:27.286Z</time>
      </trkpt>
      <trkpt lat="44.21351" lon="6.27767">
        <ele>859.1</ele>
        <time>2021-09-19T08:00:57.319Z</time>
      </trkpt>
      <trkpt lat="44.21349" lon="6.27773">
        <ele>860.4</ele>
        <time>2021-09-19T08:01:25.161Z</time>
      </trkpt>
      <trkpt lat="44.21349" lon="6.2778">
        <ele>861.7</ele>
        <time>2021-09-19T08:01:54.615Z</time>
      </trkpt>
      <trkpt lat="44.21351" lon="6.27783">
        <ele>862.3</ele>
        <time>2021-09-19T08:02:11.854Z</time>
      </trkpt>
      <trkpt lat="44.21355" lon="6.27777">
        <ele>861.1</ele>
        <time>2021-09-19T08:02:13.436Z</time>
      </trkpt>
      <trkpt lat="44.21365" lon="6.27768">
        <ele>859.2</ele>
        <time>2021-09-19T08:02:16.642Z</time>
      </trkpt>
      <trkpt lat="44.21371" lon="6.27759">
        <ele>858</ele>
        <time>2021-09-19T08:02:19.015Z</time>
      </trkpt>
      <trkpt lat="44.21374" lon="6.27756">
        <ele>857.7</ele>
        <time>2021-09-19T08:02:20.010Z</time>
      </trkpt>
      <trkpt lat="44.21378" lon="6.27757">
        <ele>857.9</ele>
        <time>2021-09-19T08:02:30.769Z</time>
      </trkpt>
      <trkpt lat="44.21379" lon="6.2776">
        <ele>858.3</ele>
        <time>2021-09-19T08:02:44.690Z</time>
      </trkpt>
      <trkpt lat="44.21375" lon="6.27767">
        <ele>859</ele>
        <time>2021-09-19T08:03:12.555Z</time>
      </trkpt>
      <trkpt lat="44.21376" lon="6.27773">
        <ele>859.8</ele>
        <time>2021-09-19T08:03:38.475Z</time>
      </trkpt>
      <trkpt lat="44.21379" lon="6.27782">
        <ele>860.6</ele>
        <time>2021-09-19T08:04:10.520Z</time>
      </trkpt>
      <trkpt lat="44.21379" lon="6.27786">
        <ele>861.1</ele>
        <time>2021-09-19T08:04:27.350Z</time>
      </trkpt>
      <trkpt lat="44.21378" lon="6.2779">
        <ele>861.6</ele>
        <time>2021-09-19T08:04:45.175Z</time>
      </trkpt>
      <trkpt lat="44.21373" lon="6.27799">
        <ele>863.1</ele>
        <time>2021-09-19T08:05:33.088Z</time>
      </trkpt>
      <trkpt lat="44.21369" lon="6.27804">
        <ele>864.2</ele>
        <time>2021-09-19T08:06:04.615Z</time>
      </trkpt>
      <trkpt lat="44.21362" lon="6.2782">
        <ele>867.7</ele>
        <time>2021-09-19T08:07:23.488Z</time>
      </trkpt>
      <trkpt lat="44.21358" lon="6.27825">
        <ele>869.2</ele>
        <time>2021-09-19T08:07:55.016Z</time>
      </trkpt>
      <trkpt lat="44.21349" lon="6.27838">
        <ele>873.3</ele>
        <time>2021-09-19T08:09:11.065Z</time>
      </trkpt>
      <trkpt lat="44.21344" lon="6.27842">
        <ele>875.2</ele>
        <time>2021-09-19T08:09:44.901Z</time>
      </trkpt>
      <trkpt lat="44.21342" lon="6.27847">
        <ele>876.7</ele>
        <time>2021-09-19T08:10:08.993Z</time>
      </trkpt>
      <trkpt lat="44.21342" lon="6.27855">
        <ele>878</ele>
        <time>2021-09-19T08:10:42.654Z</time>
      </trkpt>
      <trkpt lat="44.21345" lon="6.27863">
        <ele>878.6</ele>
        <time>2021-09-19T08:11:06.570Z</time>
      </trkpt>
      <trkpt lat="44.21348" lon="6.27877">
        <ele>880.1</ele>
        <time>2021-09-19T08:12:08.053Z</time>
      </trkpt>
      <trkpt lat="44.21349" lon="6.27885">
        <ele>881</ele>
        <time>2021-09-19T08:12:42.222Z</time>
      </trkpt>
      <trkpt lat="44.21349" lon="6.27897">
        <ele>882.9</ele>
        <time>2021-09-19T08:13:32.714Z</time>
      </trkpt>
      <trkpt lat="44.21349" lon="6.27902">
        <ele>883.8</ele>
        <time>2021-09-19T08:13:53.752Z</time>
      </trkpt>
      <trkpt lat="44.21347" lon="6.27906">
        <ele>885.2</ele>
        <time>2021-09-19T08:14:14.273Z</time>
      </trkpt>
      <trkpt lat="44.21344" lon="6.27908">
        <ele>886.7</ele>
        <time>2021-09-19T08:14:33.792Z</time>
      </trkpt>
      <trkpt lat="44.21336" lon="6.2791">
        <ele>889.8</ele>
        <time>2021-09-19T08:15:21.504Z</time>
      </trkpt>
      <trkpt lat="44.21333" lon="6.27912">
        <ele>891</ele>
        <time>2021-09-19T08:15:41.023Z</time>
      </trkpt>
      <trkpt lat="44.21335" lon="6.27919">
        <ele>891.9</ele>
        <time>2021-09-19T08:16:12.730Z</time>
      </trkpt>
      <trkpt lat="44.2134" lon="6.27932">
        <ele>892.5</ele>
        <time>2021-09-19T08:16:42.172Z</time>
      </trkpt>
      <trkpt lat="44.21342" lon="6.27943">
        <ele>894.3</ele>
        <time>2021-09-19T08:17:29.922Z</time>
      </trkpt>
      <trkpt lat="44.21342" lon="6.27948">
        <ele>895.4</ele>
        <time>2021-09-19T08:17:50.960Z</time>
      </trkpt>
      <trkpt lat="44.2134" lon="6.2796">
        <ele>898.3</ele>
        <time>2021-09-19T08:18:42.799Z</time>
      </trkpt>
      <trkpt lat="44.21338" lon="6.27965">
        <ele>900.4</ele>
        <time>2021-09-19T08:19:06.892Z</time>
      </trkpt>
      <trkpt lat="44.21335" lon="6.27965">
        <ele>901.7</ele>
        <time>2021-09-19T08:19:24.503Z</time>
      </trkpt>
      <trkpt lat="44.21333" lon="6.27962">
        <ele>901.8</ele>
        <time>2021-09-19T08:19:30.998Z</time>
      </trkpt>
      <trkpt lat="44.21321" lon="6.27975">
        <ele>903.7</ele>
        <time>2021-09-19T08:20:50.558Z</time>
      </trkpt>
      <trkpt lat="44.21318" lon="6.27982">
        <ele>905.1</ele>
        <time>2021-09-19T08:21:24.875Z</time>
      </trkpt>
      <trkpt lat="44.21315" lon="6.27993">
        <ele>907.3</ele>
        <time>2021-09-19T08:22:14.397Z</time>
      </trkpt>
      <trkpt lat="44.21311" lon="6.28013">
        <ele>911.9</ele>
        <time>2021-09-19T08:23:41.765Z</time>
      </trkpt>
      <trkpt lat="44.21308" lon="6.2802">
        <ele>913.3</ele>
        <time>2021-09-19T08:24:16.082Z</time>
      </trkpt>
      <trkpt lat="44.21304" lon="6.28024">
        <ele>914.2</ele>
        <time>2021-09-19T08:24:44.973Z</time>
      </trkpt>
      <trkpt lat="44.21301" lon="6.28023">
        <ele>913.8</ele>
        <time>2021-09-19T08:24:45.804Z</time>
      </trkpt>
      <trkpt lat="44.21294" lon="6.28021">
        <ele>912.9</ele>
        <time>2021-09-19T08:24:47.729Z</time>
      </trkpt>
      <trkpt lat="44.21289" lon="6.28024">
        <ele>913.5</ele>
        <time>2021-09-19T08:25:11.658Z</time>
      </trkpt>
      <trkpt lat="44.21288" lon="6.28032">
        <ele>915.3</ele>
        <time>2021-09-19T08:25:45.827Z</time>
      </trkpt>
      <trkpt lat="44.21289" lon="6.28039">
        <ele>917.3</ele>
        <time>2021-09-19T08:26:15.860Z</time>
      </trkpt>
      <trkpt lat="44.21289" lon="6.28054">
        <ele>921.1</ele>
        <time>2021-09-19T08:27:18.976Z</time>
      </trkpt>
      <trkpt lat="44.21286" lon="6.28066">
        <ele>924</ele>
        <time>2021-09-19T08:28:12.451Z</time>
      </trkpt>
      <trkpt lat="44.21286" lon="6.2808">
        <ele>927.6</ele>
        <time>2021-09-19T08:29:11.359Z</time>
      </trkpt>
      <trkpt lat="44.21286" lon="6.28093">
        <ele>931.4</ele>
        <time>2021-09-19T08:30:06.059Z</time>
      </trkpt>
      <trkpt lat="44.21276" lon="6.28113">
        <ele>937.8</ele>
        <time>2021-09-19T08:31:48.665Z</time>
      </trkpt>
      <trkpt lat="44.21271" lon="6.28122">
        <ele>940.7</ele>
        <time>2021-09-19T08:32:36.578Z</time>
      </trkpt>
      <trkpt lat="44.21274" lon="6.28128">
        <ele>942.7</ele>
        <time>2021-09-19T08:33:07.360Z</time>
      </trkpt>
      <trkpt lat="44.21287" lon="6.28123">
        <ele>940.5</ele>
        <time>2021-09-19T08:33:10.993Z</time>
      </trkpt>
      <trkpt lat="44.21295" lon="6.28116">
        <ele>938.3</ele>
        <time>2021-09-19T08:33:13.537Z</time>
      </trkpt>
      <trkpt lat="44.21299" lon="6.28115">
        <ele>938</ele>
        <time>2021-09-19T08:33:14.632Z</time>
      </trkpt>
      <trkpt lat="44.21302" lon="6.28115">
        <ele>937.9</ele>
        <time>2021-09-19T08:33:15.622Z</time>
      </trkpt>
      <trkpt lat="44.21305" lon="6.28119">
        <ele>938.7</ele>
        <time>2021-09-19T08:33:39.983Z</time>
      </trkpt>
      <trkpt lat="44.21308" lon="6.28124">
        <ele>940.1</ele>
        <time>2021-09-19T08:34:07.419Z</time>
      </trkpt>
      <trkpt lat="44.21314" lon="6.28127">
        <ele>940.8</ele>
        <time>2021-09-19T08:34:35.317Z</time>
      </trkpt>
      <trkpt lat="44.2131" lon="6.28134">
        <ele>942.7</ele>
        <time>2021-09-19T08:35:12.986Z</time>
      </trkpt>
      <trkpt lat="44.21301" lon="6.28141">
        <ele>945.4</ele>
        <time>2021-09-19T08:36:13.475Z</time>
      </trkpt>
      <trkpt lat="44.21295" lon="6.28144">
        <ele>946.6</ele>
        <time>2021-09-19T08:36:50.892Z</time>
      </trkpt>
      <trkpt lat="44.21291" lon="6.28151">
        <ele>948.8</ele>
        <time>2021-09-19T08:37:28.560Z</time>
      </trkpt>
      <trkpt lat="44.21291" lon="6.28155">
        <ele>950.1</ele>
        <time>2021-09-19T08:37:45.391Z</time>
      </trkpt>
      <trkpt lat="44.21302" lon="6.28155">
        <ele>949.3</ele>
        <time>2021-09-19T08:37:48.354Z</time>
      </trkpt>
      <trkpt lat="44.21306" lon="6.28157">
        <ele>949.6</ele>
        <time>2021-09-19T08:38:01.427Z</time>
      </trkpt>
      <trkpt lat="44.21313" lon="6.28162">
        <ele>950.3</ele>
        <time>2021-09-19T08:38:29.542Z</time>
      </trkpt>
      <trkpt lat="44.21314" lon="6.28169">
        <ele>952.4</ele>
        <time>2021-09-19T08:38:59.575Z</time>
      </trkpt>
      <trkpt lat="44.2131" lon="6.28172">
        <ele>953.6</ele>
        <time>2021-09-19T08:39:26.235Z</time>
      </trkpt>
      <trkpt lat="44.21307" lon="6.28172">
        <ele>953.9</ele>
        <time>2021-09-19T08:39:38.108Z</time>
      </trkpt>
      <trkpt lat="44.21301" lon="6.28171">
        <ele>954.2</ele>
        <time>2021-09-19T08:39:54.152Z</time>
      </trkpt>
      <trkpt lat="44.21295" lon="6.28171">
        <ele>954.7</ele>
        <time>2021-09-19T08:40:14.582Z</time>
      </trkpt>
      <trkpt lat="44.21291" lon="6.28177">
        <ele>956.9</ele>
        <time>2021-09-19T08:40:49.060Z</time>
      </trkpt>
      <trkpt lat="44.2128" lon="6.2818">
        <ele>959.3</ele>
        <time>2021-09-19T08:41:54.858Z</time>
      </trkpt>
      <trkpt lat="44.21276" lon="6.28182">
        <ele>960.5</ele>
        <time>2021-09-19T08:42:19.802Z</time>
      </trkpt>
      <trkpt lat="44.21272" lon="6.28184">
        <ele>961.9</ele>
        <time>2021-09-19T08:42:44.746Z</time>
      </trkpt>
      <trkpt lat="44.21269" lon="6.28188">
        <ele>963.9</ele>
        <time>2021-09-19T08:43:09.107Z</time>
      </trkpt>
      <trkpt lat="44.2126" lon="6.282">
        <ele>969.9</ele>
        <time>2021-09-19T08:44:22.189Z</time>
      </trkpt>
      <trkpt lat="44.21254" lon="6.28208">
        <ele>974.1</ele>
        <time>2021-09-19T08:45:10.910Z</time>
      </trkpt>
      <trkpt lat="44.21245" lon="6.28214">
        <ele>977.8</ele>
        <time>2021-09-19T08:46:09.466Z</time>
      </trkpt>
      <trkpt lat="44.21239" lon="6.28221">
        <ele>980.8</ele>
        <time>2021-09-19T08:46:55.381Z</time>
      </trkpt>
      <trkpt lat="44.21232" lon="6.28222">
        <ele>981.5</ele>
        <time>2021-09-19T08:47:23.091Z</time>
      </trkpt>
      <trkpt lat="44.21228" lon="6.28222">
        <ele>981.7</ele>
        <time>2021-09-19T08:47:33.736Z</time>
      </trkpt>
      <trkpt lat="44.21222" lon="6.28223">
        <ele>982.4</ele>
        <time>2021-09-19T08:48:02.018Z</time>
      </trkpt>
      <trkpt lat="44.21221" lon="6.28226">
        <ele>983.8</ele>
        <time>2021-09-19T08:48:15.940Z</time>
      </trkpt>
      <trkpt lat="44.21225" lon="6.28228">
        <ele>984.5</ele>
        <time>2021-09-19T08:48:40.884Z</time>
      </trkpt>
      <trkpt lat="44.21233" lon="6.28233">
        <ele>986.4</ele>
        <time>2021-09-19T08:49:32.345Z</time>
      </trkpt>
      <trkpt lat="44.21227" lon="6.28238">
        <ele>988.5</ele>
        <time>2021-09-19T08:50:13.373Z</time>
      </trkpt>
      <trkpt lat="44.21219" lon="6.2824">
        <ele>989.6</ele>
        <time>2021-09-19T08:51:01.084Z</time>
      </trkpt>
      <trkpt lat="44.21217" lon="6.28245">
        <ele>991.8</ele>
        <time>2021-09-19T08:51:25.177Z</time>
      </trkpt>
      <trkpt lat="44.21219" lon="6.2825">
        <ele>993.5</ele>
        <time>2021-09-19T08:51:49.271Z</time>
      </trkpt>
      <trkpt lat="44.21224" lon="6.28252">
        <ele>994.2</ele>
        <time>2021-09-19T08:52:19.805Z</time>
      </trkpt>
      <trkpt lat="44.21229" lon="6.28252">
        <ele>994.1</ele>
        <time>2021-09-19T08:52:21.715Z</time>
      </trkpt>
      <trkpt lat="44.21234" lon="6.28252">
        <ele>994</ele>
        <time>2021-09-19T08:52:23.624Z</time>
      </trkpt>
      <trkpt lat="44.21245" lon="6.28252">
        <ele>993.7</ele>
        <time>2021-09-19T08:52:27.494Z</time>
      </trkpt>
      <trkpt lat="44.21249" lon="6.28251">
        <ele>993.2</ele>
        <time>2021-09-19T08:52:28.589Z</time>
      </trkpt>
      <trkpt lat="44.21255" lon="6.28245">
        <ele>989.8</ele>
        <time>2021-09-19T08:52:30.578Z</time>
      </trkpt>
      <trkpt lat="44.21258" lon="6.28243">
        <ele>988.1</ele>
        <time>2021-09-19T08:52:31.474Z</time>
      </trkpt>
      <trkpt lat="44.2127" lon="6.28238">
        <ele>983</ele>
        <time>2021-09-19T08:52:34.847Z</time>
      </trkpt>
      <trkpt lat="44.21278" lon="6.28238">
        <ele>981</ele>
        <time>2021-09-19T08:52:37.003Z</time>
      </trkpt>
      <trkpt lat="44.21281" lon="6.28239">
        <ele>980.6</ele>
        <time>2021-09-19T08:52:37.834Z</time>
      </trkpt>
      <trkpt lat="44.21286" lon="6.28242">
        <ele>980.7</ele>
        <time>2021-09-19T08:52:47.794Z</time>
      </trkpt>
      <trkpt lat="44.21289" lon="6.28248">
        <ele>982.2</ele>
        <time>2021-09-19T08:53:18.575Z</time>
      </trkpt>
      <trkpt lat="44.21289" lon="6.28253">
        <ele>983.3</ele>
        <time>2021-09-19T08:53:39.614Z</time>
      </trkpt>
      <trkpt lat="44.21286" lon="6.28253">
        <ele>984.2</ele>
        <time>2021-09-19T08:53:57.225Z</time>
      </trkpt>
      <trkpt lat="44.21283" lon="6.28254">
        <ele>985.3</ele>
        <time>2021-09-19T08:54:15.332Z</time>
      </trkpt>
      <trkpt lat="44.21279" lon="6.28256">
        <ele>986.7</ele>
        <time>2021-09-19T08:54:40.277Z</time>
      </trkpt>
      <trkpt lat="44.21275" lon="6.28265">
        <ele>990.1</ele>
        <time>2021-09-19T08:55:24.835Z</time>
      </trkpt>
      <trkpt lat="44.21271" lon="6.28271">
        <ele>993.2</ele>
        <time>2021-09-19T08:55:59.314Z</time>
      </trkpt>
      <trkpt lat="44.21266" lon="6.28276">
        <ele>996.1</ele>
        <time>2021-09-19T08:56:35.427Z</time>
      </trkpt>
      <trkpt lat="44.21262" lon="6.28281">
        <ele>998.9</ele>
        <time>2021-09-19T08:57:06.955Z</time>
      </trkpt>
      <trkpt lat="44.21257" lon="6.28284">
        <ele>1001.9</ele>
        <time>2021-09-19T08:57:38.907Z</time>
      </trkpt>
      <trkpt lat="44.21248" lon="6.28291">
        <ele>1007</ele>
        <time>2021-09-19T08:58:39.397Z</time>
      </trkpt>
      <trkpt lat="44.21239" lon="6.28297">
        <ele>1009.3</ele>
        <time>2021-09-19T08:59:37.953Z</time>
      </trkpt>
      <trkpt lat="44.21228" lon="6.28306">
        <ele>1013.2</ele>
        <time>2021-09-19T09:00:52.813Z</time>
      </trkpt>
      <trkpt lat="44.21217" lon="6.28312">
        <ele>1015.7</ele>
        <time>2021-09-19T09:02:02.148Z</time>
      </trkpt>
      <trkpt lat="44.21209" lon="6.28319">
        <ele>1018.9</ele>
        <time>2021-09-19T09:02:57.584Z</time>
      </trkpt>
      <trkpt lat="44.21203" lon="6.28322">
        <ele>1020.4</ele>
        <time>2021-09-19T09:03:35.001Z</time>
      </trkpt>
      <trkpt lat="44.21199" lon="6.28328">
        <ele>1022.7</ele>
        <time>2021-09-19T09:04:09.479Z</time>
      </trkpt>
      <trkpt lat="44.21199" lon="6.28331">
        <ele>1023.9</ele>
        <time>2021-09-19T09:04:22.103Z</time>
      </trkpt>
      <trkpt lat="44.21209" lon="6.28329">
        <ele>1022.4</ele>
        <time>2021-09-19T09:04:24.824Z</time>
      </trkpt>
      <trkpt lat="44.21214" lon="6.28328">
        <ele>1021.6</ele>
        <time>2021-09-19T09:04:26.185Z</time>
      </trkpt>
      <trkpt lat="44.21219" lon="6.28329">
        <ele>1021.7</ele>
        <time>2021-09-19T09:04:35.575Z</time>
      </trkpt>
      <trkpt lat="44.21222" lon="6.2833">
        <ele>1021.8</ele>
        <time>2021-09-19T09:04:42.253Z</time>
      </trkpt>
      <trkpt lat="44.21226" lon="6.28332">
        <ele>1022.3</ele>
        <time>2021-09-19T09:05:02.569Z</time>
      </trkpt>
      <trkpt lat="44.21224" lon="6.28336">
        <ele>1023.4</ele>
        <time>2021-09-19T09:05:23.090Z</time>
      </trkpt>
      <trkpt lat="44.21218" lon="6.28338">
        <ele>1024</ele>
        <time>2021-09-19T09:05:46.872Z</time>
      </trkpt>
      <trkpt lat="44.21213" lon="6.28343">
        <ele>1025.3</ele>
        <time>2021-09-19T09:06:22.985Z</time>
      </trkpt>
      <trkpt lat="44.21211" lon="6.28348">
        <ele>1026.4</ele>
        <time>2021-09-19T09:06:47.078Z</time>
      </trkpt>
      <trkpt lat="44.21203" lon="6.28365">
        <ele>1030.5</ele>
        <time>2021-09-19T09:08:12.649Z</time>
      </trkpt>
      <trkpt lat="44.21174" lon="6.28402">
        <ele>1043.5</ele>
        <time>2021-09-19T09:12:03.347Z</time>
      </trkpt>
      <trkpt lat="44.21159" lon="6.28395">
        <ele>1044</ele>
        <time>2021-09-19T09:12:37.231Z</time>
      </trkpt>
      <trkpt lat="44.21147" lon="6.28392">
        <ele>1044.2</ele>
        <time>2021-09-19T09:12:59.067Z</time>
      </trkpt>
      <trkpt lat="44.21138" lon="6.28385">
        <ele>1043.2</ele>
        <time>2021-09-19T09:13:01.843Z</time>
      </trkpt>
      <trkpt lat="44.21129" lon="6.28379">
        <ele>1042.8</ele>
        <time>2021-09-19T09:13:04.925Z</time>
      </trkpt>
      <trkpt lat="44.21119" lon="6.28377">
        <ele>1043.3</ele>
        <time>2021-09-19T09:13:31.721Z</time>
      </trkpt>
      <trkpt lat="44.21101" lon="6.28374">
        <ele>1044.5</ele>
        <time>2021-09-19T09:14:25.691Z</time>
      </trkpt>
      <trkpt lat="44.21088" lon="6.28374">
        <ele>1045.8</ele>
        <time>2021-09-19T09:15:17.144Z</time>
      </trkpt>
      <trkpt lat="44.21081" lon="6.28373">
        <ele>1046.3</ele>
        <time>2021-09-19T09:15:38.867Z</time>
      </trkpt>
      <trkpt lat="44.21073" lon="6.28369">
        <ele>1046.2</ele>
        <time>2021-09-19T09:15:42.459Z</time>
      </trkpt>
      <trkpt lat="44.21068" lon="6.28364">
        <ele>1046</ele>
        <time>2021-09-19T09:15:44.508Z</time>
      </trkpt>
      <trkpt lat="44.21064" lon="6.28359">
        <ele>1045.6</ele>
        <time>2021-09-19T09:15:45.955Z</time>
      </trkpt>
      <trkpt lat="44.21055" lon="6.28347">
        <ele>1044.7</ele>
        <time>2021-09-19T09:15:49.308Z</time>
      </trkpt>
      <trkpt lat="44.21052" lon="6.28345">
        <ele>1044.8</ele>
        <time>2021-09-19T09:15:56.293Z</time>
      </trkpt>
      <trkpt lat="44.21046" lon="6.28343">
        <ele>1045.1</ele>
        <time>2021-09-19T09:16:12.564Z</time>
      </trkpt>
      <trkpt lat="44.2104" lon="6.2834">
        <ele>1045.5</ele>
        <time>2021-09-19T09:16:31.073Z</time>
      </trkpt>
      <trkpt lat="44.20996" lon="6.28307">
        <ele>1048.7</ele>
        <time>2021-09-19T09:18:57.504Z</time>
      </trkpt>
      <trkpt lat="44.20985" lon="6.28319">
        <ele>1048</ele>
        <time>2021-09-19T09:19:01.444Z</time>
      </trkpt>
      <trkpt lat="44.20983" lon="6.28337">
        <ele>1048.3</ele>
        <time>2021-09-19T09:19:26.613Z</time>
      </trkpt>
      <trkpt lat="44.20981" lon="6.28342">
        <ele>1048.4</ele>
        <time>2021-09-19T09:19:34.654Z</time>
      </trkpt>
      <trkpt lat="44.20975" lon="6.28358">
        <ele>1048.1</ele>
        <time>2021-09-19T09:19:39.419Z</time>
      </trkpt>
      <trkpt lat="44.20984" lon="6.2837">
        <ele>1050.1</ele>
        <time>2021-09-19T09:20:52.502Z</time>
      </trkpt>
      <trkpt lat="44.20985" lon="6.28377">
        <ele>1050.6</ele>
        <time>2021-09-19T09:21:12.313Z</time>
      </trkpt>
      <trkpt lat="44.20983" lon="6.28401">
        <ele>1051.4</ele>
        <time>2021-09-19T09:21:57.281Z</time>
      </trkpt>
      <trkpt lat="44.20982" lon="6.28411">
        <ele>1051.6</ele>
        <time>2021-09-19T09:22:12.029Z</time>
      </trkpt>
      <trkpt lat="44.20982" lon="6.28423">
        <ele>1052.6</ele>
        <time>2021-09-19T09:22:52.482Z</time>
      </trkpt>
      <trkpt lat="44.20978" lon="6.28433">
        <ele>1052.7</ele>
        <time>2021-09-19T09:23:06.545Z</time>
      </trkpt>
      <trkpt lat="44.20976" lon="6.28441">
        <ele>1053</ele>
        <time>2021-09-19T09:23:22.643Z</time>
      </trkpt>
      <trkpt lat="44.20971" lon="6.28447">
        <ele>1052.4</ele>
        <time>2021-09-19T09:23:24.420Z</time>
      </trkpt>
      <trkpt lat="44.20969" lon="6.28461">
        <ele>1053.2</ele>
        <time>2021-09-19T09:23:57.818Z</time>
      </trkpt>
      <trkpt lat="44.20968" lon="6.28481">
        <ele>1055</ele>
        <time>2021-09-19T09:25:13.263Z</time>
      </trkpt>
      <trkpt lat="44.20967" lon="6.28491">
        <ele>1055.6</ele>
        <time>2021-09-19T09:25:37.816Z</time>
      </trkpt>
      <trkpt lat="44.20963" lon="6.28513">
        <ele>1057.1</ele>
        <time>2021-09-19T09:26:37.659Z</time>
      </trkpt>
      <trkpt lat="44.2096" lon="6.28523">
        <ele>1057.3</ele>
        <time>2021-09-19T09:26:53.133Z</time>
      </trkpt>
      <trkpt lat="44.20959" lon="6.28512">
        <ele>1055.6</ele>
        <time>2021-09-19T09:26:55.275Z</time>
      </trkpt>
      <trkpt lat="44.20959" lon="6.28526">
        <ele>1057.5</ele>
        <time>2021-09-19T09:27:54.185Z</time>
      </trkpt>
      <trkpt lat="44.20965" lon="6.28471">
        <ele>1053</ele>
        <time>2021-09-19T09:28:04.928Z</time>
      </trkpt>
      <trkpt lat="44.20968" lon="6.2845">
        <ele>1052</ele>
        <time>2021-09-19T09:28:08.760Z</time>
      </trkpt>
      <trkpt lat="44.20973" lon="6.28434">
        <ele>1051.7</ele>
        <time>2021-09-19T09:28:13.325Z</time>
      </trkpt>
      <trkpt lat="44.20977" lon="6.28422">
        <ele>1051.3</ele>
        <time>2021-09-19T09:28:16.200Z</time>
      </trkpt>
      <trkpt lat="44.20977" lon="6.28397">
        <ele>1050</ele>
        <time>2021-09-19T09:28:21.027Z</time>
      </trkpt>
      <trkpt lat="44.20976" lon="6.28379">
        <ele>1049.1</ele>
        <time>2021-09-19T09:28:24.514Z</time>
      </trkpt>
      <trkpt lat="44.20969" lon="6.28354">
        <ele>1047.2</ele>
        <time>2021-09-19T09:28:29.696Z</time>
      </trkpt>
      <trkpt lat="44.20966" lon="6.2834">
        <ele>1046.4</ele>
        <time>2021-09-19T09:28:32.518Z</time>
      </trkpt>
      <trkpt lat="44.20963" lon="6.28332">
        <ele>1046</ele>
        <time>2021-09-19T09:28:34.176Z</time>
      </trkpt>
      <trkpt lat="44.20961" lon="6.28325">
        <ele>1045.7</ele>
        <time>2021-09-19T09:28:35.632Z</time>
      </trkpt>
      <trkpt lat="44.20958" lon="6.28317">
        <ele>1045.3</ele>
        <time>2021-09-19T09:28:37.290Z</time>
      </trkpt>
      <trkpt lat="44.20957" lon="6.28312">
        <ele>1045.2</ele>
        <time>2021-09-19T09:28:38.605Z</time>
      </trkpt>
      <trkpt lat="44.20956" lon="6.28302">
        <ele>1045.1</ele>
        <time>2021-09-19T09:28:41.585Z</time>
      </trkpt>
      <trkpt lat="44.20958" lon="6.28292">
        <ele>1045.2</ele>
        <time>2021-09-19T09:28:54.501Z</time>
      </trkpt>
      <trkpt lat="44.2097" lon="6.28266">
        <ele>1045.8</ele>
        <time>2021-09-19T09:29:39.359Z</time>
      </trkpt>
      <trkpt lat="44.20973" lon="6.28256">
        <ele>1045.8</ele>
        <time>2021-09-19T09:29:51.185Z</time>
      </trkpt>
      <trkpt lat="44.20975" lon="6.28244">
        <ele>1046.3</ele>
        <time>2021-09-19T09:30:15.752Z</time>
      </trkpt>
      <trkpt lat="44.20986" lon="6.28285">
        <ele>1047.2</ele>
        <time>2021-09-19T09:31:20.529Z</time>
      </trkpt>
      <trkpt lat="44.20999" lon="6.2831">
        <ele>1049.1</ele>
        <time>2021-09-19T09:32:37.515Z</time>
      </trkpt>
      <trkpt lat="44.21015" lon="6.28313">
        <ele>1046.7</ele>
        <time>2021-09-19T09:32:41.864Z</time>
      </trkpt>
      <trkpt lat="44.21008" lon="6.28299">
        <ele>1047.3</ele>
        <time>2021-09-19T09:33:14.222Z</time>
      </trkpt>
      <trkpt lat="44.21005" lon="6.28295">
        <ele>1047.7</ele>
        <time>2021-09-19T09:33:30.088Z</time>
      </trkpt>
      <trkpt lat="44.20994" lon="6.28285">
        <ele>1047.8</ele>
        <time>2021-09-19T09:33:51.569Z</time>
      </trkpt>
      <trkpt lat="44.20991" lon="6.28281">
        <ele>1047.5</ele>
        <time>2021-09-19T09:33:52.687Z</time>
      </trkpt>
      <trkpt lat="44.20985" lon="6.28278">
        <ele>1047</ele>
        <time>2021-09-19T09:33:54.404Z</time>
      </trkpt>
      <trkpt lat="44.20981" lon="6.2827">
        <ele>1046.5</ele>
        <time>2021-09-19T09:33:56.288Z</time>
      </trkpt>
      <trkpt lat="44.20979" lon="6.28258">
        <ele>1046.2</ele>
        <time>2021-09-19T09:33:59.185Z</time>
      </trkpt>
      <trkpt lat="44.20977" lon="6.28251">
        <ele>1045.9</ele>
        <time>2021-09-19T09:34:00.641Z</time>
      </trkpt>
      <trkpt lat="44.20976" lon="6.28243">
        <ele>1046.4</ele>
        <time>2021-09-19T09:34:20.896Z</time>
      </trkpt>
      <trkpt lat="44.20976" lon="6.28235">
        <ele>1047.1</ele>
        <time>2021-09-19T09:34:49.811Z</time>
      </trkpt>
      <trkpt lat="44.20968" lon="6.28225">
        <ele>1047.6</ele>
        <time>2021-09-19T09:35:17.764Z</time>
      </trkpt>
      <trkpt lat="44.20972" lon="6.28212">
        <ele>1048.9</ele>
        <time>2021-09-19T09:36:13.106Z</time>
      </trkpt>
      <trkpt lat="44.20965" lon="6.28215">
        <ele>1048.4</ele>
        <time>2021-09-19T09:36:15.079Z</time>
      </trkpt>
      <trkpt lat="44.20975" lon="6.28193">
        <ele>1050.5</ele>
        <time>2021-09-19T09:37:39.200Z</time>
      </trkpt>
      <trkpt lat="44.20975" lon="6.2818">
        <ele>1051.6</ele>
        <time>2021-09-19T09:38:23.951Z</time>
      </trkpt>
      <trkpt lat="44.20979" lon="6.28175">
        <ele>1052.1</ele>
        <time>2021-09-19T09:38:43.868Z</time>
      </trkpt>
      <trkpt lat="44.20985" lon="6.28175">
        <ele>1052.1</ele>
        <time>2021-09-19T09:38:53.000Z</time>
      </trkpt>
      <trkpt lat="44.20991" lon="6.28173">
        <ele>1052.4</ele>
        <time>2021-09-19T09:39:09.271Z</time>
      </trkpt>
      <trkpt lat="44.20995" lon="6.28173">
        <ele>1052.4</ele>
        <time>2021-09-19T09:39:15.359Z</time>
      </trkpt>
      <trkpt lat="44.20986" lon="6.28167">
        <ele>1052.8</ele>
        <time>2021-09-19T09:39:39.354Z</time>
      </trkpt>
      <trkpt lat="44.20982" lon="6.28167">
        <ele>1052.8</ele>
        <time>2021-09-19T09:39:45.442Z</time>
      </trkpt>
      <trkpt lat="44.2098" lon="6.28168">
        <ele>1052.7</ele>
        <time>2021-09-19T09:39:46.058Z</time>
      </trkpt>
      <trkpt lat="44.20976" lon="6.28156">
        <ele>1052.1</ele>
        <time>2021-09-19T09:39:48.461Z</time>
      </trkpt>
      <trkpt lat="44.20968" lon="6.28153">
        <ele>1052.2</ele>
        <time>2021-09-19T09:40:02.636Z</time>
      </trkpt>
      <trkpt lat="44.20964" lon="6.28149">
        <ele>1052.3</ele>
        <time>2021-09-19T09:40:11.840Z</time>
      </trkpt>
      <trkpt lat="44.20961" lon="6.28141">
        <ele>1052.3</ele>
        <time>2021-09-19T09:40:21.689Z</time>
      </trkpt>
      <trkpt lat="44.20962" lon="6.28147">
        <ele>1052.3</ele>
        <time>2021-09-19T09:40:28.410Z</time>
      </trkpt>
      <trkpt lat="44.20956" lon="6.28163">
        <ele>1052.5</ele>
        <time>2021-09-19T09:40:51.357Z</time>
      </trkpt>
      <trkpt lat="44.20956" lon="6.28153">
        <ele>1052.6</ele>
        <time>2021-09-19T09:41:03.865Z</time>
      </trkpt>
      <trkpt lat="44.20957" lon="6.28141">
        <ele>1052.6</ele>
        <time>2021-09-19T09:41:17.044Z</time>
      </trkpt>
      <trkpt lat="44.20955" lon="6.28129">
        <ele>1052.8</ele>
        <time>2021-09-19T09:41:34.003Z</time>
      </trkpt>
      <trkpt lat="44.20955" lon="6.28116">
        <ele>1052.9</ele>
        <time>2021-09-19T09:41:49.731Z</time>
      </trkpt>
      <trkpt lat="44.20952" lon="6.28112">
        <ele>1053.5</ele>
        <time>2021-09-19T09:42:14.092Z</time>
      </trkpt>
      <trkpt lat="44.20948" lon="6.28108">
        <ele>1054.3</ele>
        <time>2021-09-19T09:42:42.983Z</time>
      </trkpt>
      <trkpt lat="44.20922" lon="6.28076">
        <ele>1061.9</ele>
        <time>2021-09-19T09:46:06.523Z</time>
      </trkpt>
      <trkpt lat="44.20913" lon="6.28063">
        <ele>1064.1</ele>
        <time>2021-09-19T09:47:22.575Z</time>
      </trkpt>
      <trkpt lat="44.20904" lon="6.28051">
        <ele>1065.6</ele>
        <time>2021-09-19T09:48:24.139Z</time>
      </trkpt>
      <trkpt lat="44.20881" lon="6.28032">
        <ele>1070.7</ele>
        <time>2021-09-19T09:51:01.056Z</time>
      </trkpt>
      <trkpt lat="44.20875" lon="6.28024">
        <ele>1073</ele>
        <time>2021-09-19T09:51:49.779Z</time>
      </trkpt>
      <trkpt lat="44.20873" lon="6.28019">
        <ele>1074.4</ele>
        <time>2021-09-19T09:52:13.873Z</time>
      </trkpt>
      <trkpt lat="44.20873" lon="6.28008">
        <ele>1076.5</ele>
        <time>2021-09-19T09:53:00.161Z</time>
      </trkpt>
      <trkpt lat="44.20871" lon="6.28006">
        <ele>1077.4</ele>
        <time>2021-09-19T09:53:14.606Z</time>
      </trkpt>
      <trkpt lat="44.20864" lon="6.2801">
        <ele>1078</ele>
        <time>2021-09-19T09:53:39.524Z</time>
      </trkpt>
      <trkpt lat="44.20861" lon="6.2801">
        <ele>1078.7</ele>
        <time>2021-09-19T09:53:57.135Z</time>
      </trkpt>
      <trkpt lat="44.20859" lon="6.28007">
        <ele>1079.9</ele>
        <time>2021-09-19T09:54:14.375Z</time>
      </trkpt>
      <trkpt lat="44.20859" lon="6.28001">
        <ele>1081.4</ele>
        <time>2021-09-19T09:54:39.623Z</time>
      </trkpt>
      <trkpt lat="44.2086" lon="6.27993">
        <ele>1083</ele>
        <time>2021-09-19T09:55:13.795Z</time>
      </trkpt>
      <trkpt lat="44.20859" lon="6.27986">
        <ele>1085.2</ele>
        <time>2021-09-19T09:55:43.830Z</time>
      </trkpt>
      <trkpt lat="44.20854" lon="6.27986">
        <ele>1086.5</ele>
        <time>2021-09-19T09:56:13.183Z</time>
      </trkpt>
      <trkpt lat="44.20852" lon="6.27989">
        <ele>1086.3</ele>
        <time>2021-09-19T09:56:13.974Z</time>
      </trkpt>
      <trkpt lat="44.20849" lon="6.27995">
        <ele>1085.4</ele>
        <time>2021-09-19T09:56:15.387Z</time>
      </trkpt>
      <trkpt lat="44.20846" lon="6.27996">
        <ele>1085.9</ele>
        <time>2021-09-19T09:56:33.494Z</time>
      </trkpt>
      <trkpt lat="44.20846" lon="6.27988">
        <ele>1088.5</ele>
        <time>2021-09-19T09:57:07.158Z</time>
      </trkpt>
      <trkpt lat="44.20848" lon="6.2798">
        <ele>1090</ele>
        <time>2021-09-19T09:57:42.810Z</time>
      </trkpt>
      <trkpt lat="44.20848" lon="6.27974">
        <ele>1091.8</ele>
        <time>2021-09-19T09:58:08.058Z</time>
      </trkpt>
      <trkpt lat="44.20845" lon="6.27974">
        <ele>1092.9</ele>
        <time>2021-09-19T09:58:25.670Z</time>
      </trkpt>
      <trkpt lat="44.20842" lon="6.27976">
        <ele>1093.4</ele>
        <time>2021-09-19T09:58:45.189Z</time>
      </trkpt>
      <trkpt lat="44.20835" lon="6.27977">
        <ele>1095.1</ele>
        <time>2021-09-19T09:59:26.497Z</time>
      </trkpt>
      <trkpt lat="44.20833" lon="6.27974">
        <ele>1096.8</ele>
        <time>2021-09-19T09:59:43.737Z</time>
      </trkpt>
      <trkpt lat="44.20825" lon="6.27962">
        <ele>1100.3</ele>
        <time>2021-09-19T10:00:52.697Z</time>
      </trkpt>
      <trkpt lat="44.20819" lon="6.27961">
        <ele>1100.3</ele>
        <time>2021-09-19T10:01:01.894Z</time>
      </trkpt>
      <trkpt lat="44.20817" lon="6.2796">
        <ele>1100.8</ele>
        <time>2021-09-19T10:01:14.366Z</time>
      </trkpt>
      <trkpt lat="44.20819" lon="6.2795">
        <ele>1104.2</ele>
        <time>2021-09-19T10:01:58.053Z</time>
      </trkpt>
      <trkpt lat="44.20828" lon="6.27947">
        <ele>1105.6</ele>
        <time>2021-09-19T10:02:52.375Z</time>
      </trkpt>
      <trkpt lat="44.2083" lon="6.27946">
        <ele>1106</ele>
        <time>2021-09-19T10:03:04.847Z</time>
      </trkpt>
      <trkpt lat="44.20821" lon="6.27938">
        <ele>1108.1</ele>
        <time>2021-09-19T10:04:07.495Z</time>
      </trkpt>
      <trkpt lat="44.20817" lon="6.27937">
        <ele>1108.2</ele>
        <time>2021-09-19T10:04:15.479Z</time>
      </trkpt>
      <trkpt lat="44.20818" lon="6.27933">
        <ele>1109.5</ele>
        <time>2021-09-19T10:04:33.306Z</time>
      </trkpt>
      <trkpt lat="44.20826" lon="6.27931">
        <ele>1110.6</ele>
        <time>2021-09-19T10:05:21.018Z</time>
      </trkpt>
      <trkpt lat="44.20831" lon="6.27922">
        <ele>1114</ele>
        <time>2021-09-19T10:06:08.933Z</time>
      </trkpt>
      <trkpt lat="44.20837" lon="6.27918">
        <ele>1113.8</ele>
        <time>2021-09-19T10:06:11.204Z</time>
      </trkpt>
      <trkpt lat="44.20841" lon="6.27915">
        <ele>1111.8</ele>
        <time>2021-09-19T10:06:12.427Z</time>
      </trkpt>
      <trkpt lat="44.20839" lon="6.2791">
        <ele>1112.6</ele>
        <time>2021-09-19T10:06:36.522Z</time>
      </trkpt>
      <trkpt lat="44.2084" lon="6.27908">
        <ele>1112.2</ele>
        <time>2021-09-19T10:06:36.992Z</time>
      </trkpt>
      <trkpt lat="44.20844" lon="6.27903">
        <ele>1109.9</ele>
        <time>2021-09-19T10:06:38.439Z</time>
      </trkpt>
      <trkpt lat="44.20849" lon="6.27894">
        <ele>1107.6</ele>
        <time>2021-09-19T10:06:40.638Z</time>
      </trkpt>
      <trkpt lat="44.20844" lon="6.27892">
        <ele>1109.9</ele>
        <time>2021-09-19T10:07:11.173Z</time>
      </trkpt>
      <trkpt lat="44.20821" lon="6.27887">
        <ele>1112</ele>
        <time>2021-09-19T10:08:35.284Z</time>
      </trkpt>
      <trkpt lat="44.20826" lon="6.27892">
        <ele>1113.6</ele>
        <time>2021-09-19T10:09:11.398Z</time>
      </trkpt>
      <trkpt lat="44.20829" lon="6.27892">
        <ele>1114.1</ele>
        <time>2021-09-19T10:09:29.010Z</time>
      </trkpt>
      <trkpt lat="44.20834" lon="6.27892">
        <ele>1114.7</ele>
        <time>2021-09-19T10:09:53.589Z</time>
      </trkpt>
      <trkpt lat="44.20843" lon="6.27894">
        <ele>1110.2</ele>
        <time>2021-09-19T10:09:56.045Z</time>
      </trkpt>
      <trkpt lat="44.20849" lon="6.27895">
        <ele>1107.3</ele>
        <time>2021-09-19T10:09:57.672Z</time>
      </trkpt>
      <trkpt lat="44.20839" lon="6.27916">
        <ele>1113.1</ele>
        <time>2021-09-19T10:11:43.763Z</time>
      </trkpt>
      <trkpt lat="44.2083" lon="6.27924">
        <ele>1113.3</ele>
        <time>2021-09-19T10:12:03.371Z</time>
      </trkpt>
      <trkpt lat="44.20826" lon="6.27926">
        <ele>1112.4</ele>
        <time>2021-09-19T10:12:04.515Z</time>
      </trkpt>
      <trkpt lat="44.20818" lon="6.27928">
        <ele>1111.3</ele>
        <time>2021-09-19T10:12:06.705Z</time>
      </trkpt>
      <trkpt lat="44.20815" lon="6.2793">
        <ele>1110.2</ele>
        <time>2021-09-19T10:12:07.601Z</time>
      </trkpt>
      <trkpt lat="44.20824" lon="6.27937">
        <ele>1108.6</ele>
        <time>2021-09-19T10:12:10.377Z</time>
      </trkpt>
      <trkpt lat="44.20841" lon="6.27942">
        <ele>1104.2</ele>
        <time>2021-09-19T10:12:15.057Z</time>
      </trkpt>
      <trkpt lat="44.20821" lon="6.27952">
        <ele>1103.4</ele>
        <time>2021-09-19T10:12:21.778Z</time>
      </trkpt>
      <trkpt lat="44.20834" lon="6.27969">
        <ele>1098.3</ele>
        <time>2021-09-19T10:12:26.579Z</time>
      </trkpt>
      <trkpt lat="44.20833" lon="6.27974">
        <ele>1096.8</ele>
        <time>2021-09-19T10:12:27.581Z</time>
      </trkpt>
      <trkpt lat="44.20835" lon="6.27977">
        <ele>1095.1</ele>
        <time>2021-09-19T10:12:28.372Z</time>
      </trkpt>
      <trkpt lat="44.20842" lon="6.27976">
        <ele>1093.4</ele>
        <time>2021-09-19T10:12:30.268Z</time>
      </trkpt>
      <trkpt lat="44.20845" lon="6.27974">
        <ele>1092.9</ele>
        <time>2021-09-19T10:12:31.163Z</time>
      </trkpt>
      <trkpt lat="44.20848" lon="6.27974">
        <ele>1091.8</ele>
        <time>2021-09-19T10:12:31.972Z</time>
      </trkpt>
      <trkpt lat="44.20848" lon="6.2798">
        <ele>1090</ele>
        <time>2021-09-19T10:12:33.130Z</time>
      </trkpt>
      <trkpt lat="44.20846" lon="6.27988">
        <ele>1088.5</ele>
        <time>2021-09-19T10:12:34.766Z</time>
      </trkpt>
      <trkpt lat="44.20846" lon="6.27993">
        <ele>1086.9</ele>
        <time>2021-09-19T10:12:35.732Z</time>
      </trkpt>
      <trkpt lat="44.20847" lon="6.27996">
        <ele>1085.6</ele>
        <time>2021-09-19T10:12:36.371Z</time>
      </trkpt>
      <trkpt lat="44.20852" lon="6.27989">
        <ele>1086.3</ele>
        <time>2021-09-19T10:13:04.088Z</time>
      </trkpt>
      <trkpt lat="44.20854" lon="6.27986">
        <ele>1086.5</ele>
        <time>2021-09-19T10:13:12.955Z</time>
      </trkpt>
      <trkpt lat="44.20858" lon="6.27985">
        <ele>1085.8</ele>
        <time>2021-09-19T10:13:14.050Z</time>
      </trkpt>
      <trkpt lat="44.2086" lon="6.27993">
        <ele>1083</ele>
        <time>2021-09-19T10:13:15.686Z</time>
      </trkpt>
      <trkpt lat="44.20859" lon="6.28001">
        <ele>1081.4</ele>
        <time>2021-09-19T10:13:17.254Z</time>
      </trkpt>
      <trkpt lat="44.20859" lon="6.28007">
        <ele>1079.9</ele>
        <time>2021-09-19T10:13:18.413Z</time>
      </trkpt>
      <trkpt lat="44.20861" lon="6.2801">
        <ele>1078.7</ele>
        <time>2021-09-19T10:13:19.204Z</time>
      </trkpt>
      <trkpt lat="44.20864" lon="6.2801">
        <ele>1078</ele>
        <time>2021-09-19T10:13:20.012Z</time>
      </trkpt>
      <trkpt lat="44.20871" lon="6.28006">
        <ele>1077.4</ele>
        <time>2021-09-19T10:13:22.050Z</time>
      </trkpt>
      <trkpt lat="44.20873" lon="6.28008">
        <ele>1076.5</ele>
        <time>2021-09-19T10:13:22.713Z</time>
      </trkpt>
      <trkpt lat="44.20873" lon="6.28019">
        <ele>1074.4</ele>
        <time>2021-09-19T10:13:24.837Z</time>
      </trkpt>
      <trkpt lat="44.20875" lon="6.28024">
        <ele>1073</ele>
        <time>2021-09-19T10:13:25.943Z</time>
      </trkpt>
      <trkpt lat="44.20881" lon="6.28032">
        <ele>1070.7</ele>
        <time>2021-09-19T10:13:28.179Z</time>
      </trkpt>
      <trkpt lat="44.20904" lon="6.28051">
        <ele>1065.6</ele>
        <time>2021-09-19T10:13:35.380Z</time>
      </trkpt>
      <trkpt lat="44.20913" lon="6.28063">
        <ele>1064.1</ele>
        <time>2021-09-19T10:13:38.733Z</time>
      </trkpt>
      <trkpt lat="44.20922" lon="6.28076">
        <ele>1061.9</ele>
        <time>2021-09-19T10:13:42.223Z</time>
      </trkpt>
      <trkpt lat="44.20948" lon="6.28108">
        <ele>1054.3</ele>
        <time>2021-09-19T10:13:51.564Z</time>
      </trkpt>
      <trkpt lat="44.20952" lon="6.28112">
        <ele>1053.5</ele>
        <time>2021-09-19T10:13:52.890Z</time>
      </trkpt>
      <trkpt lat="44.20955" lon="6.28116">
        <ele>1052.9</ele>
        <time>2021-09-19T10:13:54.008Z</time>
      </trkpt>
      <trkpt lat="44.20955" lon="6.28129">
        <ele>1052.8</ele>
        <time>2021-09-19T10:13:58.000Z</time>
      </trkpt>
      <trkpt lat="44.20957" lon="6.28141">
        <ele>1052.6</ele>
        <time>2021-09-19T10:14:01.271Z</time>
      </trkpt>
      <trkpt lat="44.20956" lon="6.28153">
        <ele>1052.6</ele>
        <time>2021-09-19T10:14:14.450Z</time>
      </trkpt>
      <trkpt lat="44.20956" lon="6.28163">
        <ele>1052.5</ele>
        <time>2021-09-19T10:14:17.396Z</time>
      </trkpt>
      <trkpt lat="44.2096" lon="6.28173">
        <ele>1051.9</ele>
        <time>2021-09-19T10:14:19.608Z</time>
      </trkpt>
      <trkpt lat="44.20961" lon="6.28195">
        <ele>1050</ele>
        <time>2021-09-19T10:14:23.864Z</time>
      </trkpt>
      <trkpt lat="44.20965" lon="6.28215">
        <ele>1048.4</ele>
        <time>2021-09-19T10:14:27.874Z</time>
      </trkpt>
      <trkpt lat="44.20966" lon="6.28222">
        <ele>1047.8</ele>
        <time>2021-09-19T10:14:29.252Z</time>
      </trkpt>
      <trkpt lat="44.20968" lon="6.28225">
        <ele>1047.6</ele>
        <time>2021-09-19T10:14:30.043Z</time>
      </trkpt>
      <trkpt lat="44.20976" lon="6.28235">
        <ele>1047.1</ele>
        <time>2021-09-19T10:14:33.171Z</time>
      </trkpt>
      <trkpt lat="44.20976" lon="6.28243">
        <ele>1046.4</ele>
        <time>2021-09-19T10:14:34.716Z</time>
      </trkpt>
      <trkpt lat="44.20977" lon="6.28251">
        <ele>1045.9</ele>
        <time>2021-09-19T10:14:36.284Z</time>
      </trkpt>
      <trkpt lat="44.20979" lon="6.28258">
        <ele>1046.2</ele>
        <time>2021-09-19T10:14:51.200Z</time>
      </trkpt>
      <trkpt lat="44.20981" lon="6.2827">
        <ele>1046.5</ele>
        <time>2021-09-19T10:15:10.712Z</time>
      </trkpt>
      <trkpt lat="44.20985" lon="6.28278">
        <ele>1047</ele>
        <time>2021-09-19T10:15:32.372Z</time>
      </trkpt>
      <trkpt lat="44.20991" lon="6.28281">
        <ele>1047.5</ele>
        <time>2021-09-19T10:15:53.220Z</time>
      </trkpt>
      <trkpt lat="44.20994" lon="6.28285">
        <ele>1047.8</ele>
        <time>2021-09-19T10:16:06.153Z</time>
      </trkpt>
      <trkpt lat="44.21005" lon="6.28295">
        <ele>1047.7</ele>
        <time>2021-09-19T10:16:12.018Z</time>
      </trkpt>
      <trkpt lat="44.21008" lon="6.28299">
        <ele>1047.3</ele>
        <time>2021-09-19T10:16:13.136Z</time>
      </trkpt>
      <trkpt lat="44.21015" lon="6.28313">
        <ele>1046.7</ele>
        <time>2021-09-19T10:16:16.621Z</time>
      </trkpt>
      <trkpt lat="44.2102" lon="6.2832">
        <ele>1046.5</ele>
        <time>2021-09-19T10:16:19.088Z</time>
      </trkpt>
      <trkpt lat="44.21025" lon="6.28326">
        <ele>1046.1</ele>
        <time>2021-09-19T10:16:20.794Z</time>
      </trkpt>
      <trkpt lat="44.21036" lon="6.28334">
        <ele>1045.4</ele>
        <time>2021-09-19T10:16:24.113Z</time>
      </trkpt>
      <trkpt lat="44.2104" lon="6.2834">
        <ele>1045.5</ele>
        <time>2021-09-19T10:16:34.703Z</time>
      </trkpt>
      <trkpt lat="44.21046" lon="6.28343">
        <ele>1045.1</ele>
        <time>2021-09-19T10:16:36.324Z</time>
      </trkpt>
      <trkpt lat="44.21052" lon="6.28345">
        <ele>1044.8</ele>
        <time>2021-09-19T10:16:38.088Z</time>
      </trkpt>
      <trkpt lat="44.21055" lon="6.28347">
        <ele>1044.7</ele>
        <time>2021-09-19T10:16:39.223Z</time>
      </trkpt>
      <trkpt lat="44.21064" lon="6.28359">
        <ele>1045.6</ele>
        <time>2021-09-19T10:17:18.021Z</time>
      </trkpt>
      <trkpt lat="44.21068" lon="6.28364">
        <ele>1046</ele>
        <time>2021-09-19T10:17:35.044Z</time>
      </trkpt>
      <trkpt lat="44.21073" lon="6.28369">
        <ele>1046.2</ele>
        <time>2021-09-19T10:17:48.378Z</time>
      </trkpt>
      <trkpt lat="44.21081" lon="6.28373">
        <ele>1046.3</ele>
        <time>2021-09-19T10:18:02.874Z</time>
      </trkpt>
      <trkpt lat="44.21088" lon="6.28374">
        <ele>1045.8</ele>
        <time>2021-09-19T10:18:04.770Z</time>
      </trkpt>
      <trkpt lat="44.21101" lon="6.28374">
        <ele>1044.5</ele>
        <time>2021-09-19T10:18:08.272Z</time>
      </trkpt>
      <trkpt lat="44.21119" lon="6.28377">
        <ele>1043.3</ele>
        <time>2021-09-19T10:18:12.762Z</time>
      </trkpt>
      <trkpt lat="44.21129" lon="6.28379">
        <ele>1042.8</ele>
        <time>2021-09-19T10:18:15.628Z</time>
      </trkpt>
      <trkpt lat="44.21138" lon="6.28385">
        <ele>1043.2</ele>
        <time>2021-09-19T10:18:39.623Z</time>
      </trkpt>
      <trkpt lat="44.21147" lon="6.28392">
        <ele>1044.2</ele>
        <time>2021-09-19T10:19:19.266Z</time>
      </trkpt>
      <trkpt lat="44.21159" lon="6.28395">
        <ele>1044</ele>
        <time>2021-09-19T10:19:24.126Z</time>
      </trkpt>
      <trkpt lat="44.21174" lon="6.28402">
        <ele>1043.5</ele>
        <time>2021-09-19T10:19:29.442Z</time>
      </trkpt>
      <trkpt lat="44.21203" lon="6.28365">
        <ele>1030.5</ele>
        <time>2021-09-19T10:19:40.029Z</time>
      </trkpt>
      <trkpt lat="44.21211" lon="6.28348">
        <ele>1026.4</ele>
        <time>2021-09-19T10:19:43.956Z</time>
      </trkpt>
      <trkpt lat="44.21213" lon="6.28343">
        <ele>1025.3</ele>
        <time>2021-09-19T10:19:45.061Z</time>
      </trkpt>
      <trkpt lat="44.21216" lon="6.28339">
        <ele>1024.3</ele>
        <time>2021-09-19T10:19:46.179Z</time>
      </trkpt>
      <trkpt lat="44.21224" lon="6.28336">
        <ele>1023.4</ele>
        <time>2021-09-19T10:19:48.411Z</time>
      </trkpt>
      <trkpt lat="44.21226" lon="6.28332">
        <ele>1022.3</ele>
        <time>2021-09-19T10:19:49.353Z</time>
      </trkpt>
      <trkpt lat="44.21222" lon="6.2833">
        <ele>1021.8</ele>
        <time>2021-09-19T10:19:50.497Z</time>
      </trkpt>
      <trkpt lat="44.21219" lon="6.28329">
        <ele>1021.7</ele>
        <time>2021-09-19T10:19:51.525Z</time>
      </trkpt>
      <trkpt lat="44.21214" lon="6.28328">
        <ele>1021.6</ele>
        <time>2021-09-19T10:19:53.459Z</time>
      </trkpt>
      <trkpt lat="44.21209" lon="6.28329">
        <ele>1022.4</ele>
        <time>2021-09-19T10:20:23.111Z</time>
      </trkpt>
      <trkpt lat="44.21199" lon="6.28331">
        <ele>1023.9</ele>
        <time>2021-09-19T10:21:22.416Z</time>
      </trkpt>
      <trkpt lat="44.21199" lon="6.28328">
        <ele>1022.7</ele>
        <time>2021-09-19T10:21:22.995Z</time>
      </trkpt>
      <trkpt lat="44.21203" lon="6.28322">
        <ele>1020.4</ele>
        <time>2021-09-19T10:21:24.578Z</time>
      </trkpt>
      <trkpt lat="44.21209" lon="6.28319">
        <ele>1018.9</ele>
        <time>2021-09-19T10:21:26.295Z</time>
      </trkpt>
      <trkpt lat="44.21217" lon="6.28312">
        <ele>1015.7</ele>
        <time>2021-09-19T10:21:28.839Z</time>
      </trkpt>
      <trkpt lat="44.21228" lon="6.28306">
        <ele>1013.2</ele>
        <time>2021-09-19T10:21:32.020Z</time>
      </trkpt>
      <trkpt lat="44.21239" lon="6.28297">
        <ele>1009.3</ele>
        <time>2021-09-19T10:21:35.456Z</time>
      </trkpt>
      <trkpt lat="44.21248" lon="6.28291">
        <ele>1007</ele>
        <time>2021-09-19T10:21:38.143Z</time>
      </trkpt>
      <trkpt lat="44.21257" lon="6.28284">
        <ele>1001.9</ele>
        <time>2021-09-19T10:21:40.919Z</time>
      </trkpt>
      <trkpt lat="44.21262" lon="6.28281">
        <ele>998.9</ele>
        <time>2021-09-19T10:21:42.385Z</time>
      </trkpt>
      <trkpt lat="44.21266" lon="6.28276">
        <ele>996.1</ele>
        <time>2021-09-19T10:21:43.832Z</time>
      </trkpt>
      <trkpt lat="44.21271" lon="6.28271">
        <ele>993.2</ele>
        <time>2021-09-19T10:21:45.489Z</time>
      </trkpt>
      <trkpt lat="44.21275" lon="6.28265">
        <ele>990.1</ele>
        <time>2021-09-19T10:21:47.071Z</time>
      </trkpt>
      <trkpt lat="44.21279" lon="6.28256">
        <ele>986.7</ele>
        <time>2021-09-19T10:21:49.116Z</time>
      </trkpt>
      <trkpt lat="44.21283" lon="6.28254">
        <ele>985.3</ele>
        <time>2021-09-19T10:21:50.261Z</time>
      </trkpt>
      <trkpt lat="44.21286" lon="6.28253">
        <ele>984.2</ele>
        <time>2021-09-19T10:21:51.092Z</time>
      </trkpt>
      <trkpt lat="44.21289" lon="6.28253">
        <ele>983.3</ele>
        <time>2021-09-19T10:21:51.900Z</time>
      </trkpt>
      <trkpt lat="44.21289" lon="6.28248">
        <ele>982.2</ele>
        <time>2021-09-19T10:21:52.865Z</time>
      </trkpt>
      <trkpt lat="44.21288" lon="6.28244">
        <ele>981</ele>
        <time>2021-09-19T10:21:53.683Z</time>
      </trkpt>
      <trkpt lat="44.21281" lon="6.28239">
        <ele>980.6</ele>
        <time>2021-09-19T10:21:55.888Z</time>
      </trkpt>
      <trkpt lat="44.21278" lon="6.28238">
        <ele>981</ele>
        <time>2021-09-19T10:22:13.064Z</time>
      </trkpt>
      <trkpt lat="44.2127" lon="6.28238">
        <ele>983</ele>
        <time>2021-09-19T10:23:00.028Z</time>
      </trkpt>
      <trkpt lat="44.21258" lon="6.28243">
        <ele>988.1</ele>
        <time>2021-09-19T10:24:13.548Z</time>
      </trkpt>
      <trkpt lat="44.21255" lon="6.28245">
        <ele>989.8</ele>
        <time>2021-09-19T10:24:33.067Z</time>
      </trkpt>
      <trkpt lat="44.21249" lon="6.28251">
        <ele>993.2</ele>
        <time>2021-09-19T10:25:16.403Z</time>
      </trkpt>
      <trkpt lat="44.21245" lon="6.28252">
        <ele>993.7</ele>
        <time>2021-09-19T10:25:37.143Z</time>
      </trkpt>
      <trkpt lat="44.21234" lon="6.28252">
        <ele>994</ele>
        <time>2021-09-19T10:25:59.460Z</time>
      </trkpt>
      <trkpt lat="44.21229" lon="6.28252">
        <ele>994.1</ele>
        <time>2021-09-19T10:26:08.777Z</time>
      </trkpt>
      <trkpt lat="44.21224" lon="6.28252">
        <ele>994.2</ele>
        <time>2021-09-19T10:26:18.093Z</time>
      </trkpt>
      <trkpt lat="44.21219" lon="6.2825">
        <ele>993.5</ele>
        <time>2021-09-19T10:26:19.495Z</time>
      </trkpt>
      <trkpt lat="44.21217" lon="6.28245">
        <ele>991.8</ele>
        <time>2021-09-19T10:26:20.600Z</time>
      </trkpt>
      <trkpt lat="44.21219" lon="6.2824">
        <ele>989.6</ele>
        <time>2021-09-19T10:26:21.706Z</time>
      </trkpt>
      <trkpt lat="44.21227" lon="6.28238">
        <ele>988.5</ele>
        <time>2021-09-19T10:26:23.895Z</time>
      </trkpt>
      <trkpt lat="44.21234" lon="6.28235">
        <ele>986.9</ele>
        <time>2021-09-19T10:26:25.868Z</time>
      </trkpt>
      <trkpt lat="44.21225" lon="6.28228">
        <ele>984.5</ele>
        <time>2021-09-19T10:26:28.644Z</time>
      </trkpt>
      <trkpt lat="44.21221" lon="6.28226">
        <ele>983.8</ele>
        <time>2021-09-19T10:26:29.789Z</time>
      </trkpt>
      <trkpt lat="44.21222" lon="6.28223">
        <ele>982.4</ele>
        <time>2021-09-19T10:26:30.427Z</time>
      </trkpt>
      <trkpt lat="44.21228" lon="6.28222">
        <ele>981.7</ele>
        <time>2021-09-19T10:26:32.055Z</time>
      </trkpt>
      <trkpt lat="44.21232" lon="6.28222">
        <ele>981.5</ele>
        <time>2021-09-19T10:26:33.185Z</time>
      </trkpt>
      <trkpt lat="44.21239" lon="6.28221">
        <ele>980.8</ele>
        <time>2021-09-19T10:26:35.081Z</time>
      </trkpt>
      <trkpt lat="44.21245" lon="6.28214">
        <ele>977.8</ele>
        <time>2021-09-19T10:26:37.188Z</time>
      </trkpt>
      <trkpt lat="44.21254" lon="6.28208">
        <ele>974.1</ele>
        <time>2021-09-19T10:26:39.875Z</time>
      </trkpt>
      <trkpt lat="44.2126" lon="6.282">
        <ele>969.9</ele>
        <time>2021-09-19T10:26:42.111Z</time>
      </trkpt>
      <trkpt lat="44.21269" lon="6.28188">
        <ele>963.9</ele>
        <time>2021-09-19T10:26:45.465Z</time>
      </trkpt>
      <trkpt lat="44.21272" lon="6.28184">
        <ele>961.9</ele>
        <time>2021-09-19T10:26:46.583Z</time>
      </trkpt>
      <trkpt lat="44.21276" lon="6.28182">
        <ele>960.5</ele>
        <time>2021-09-19T10:26:47.727Z</time>
      </trkpt>
      <trkpt lat="44.2128" lon="6.2818">
        <ele>959.3</ele>
        <time>2021-09-19T10:26:48.872Z</time>
      </trkpt>
      <trkpt lat="44.21291" lon="6.28177">
        <ele>956.9</ele>
        <time>2021-09-19T10:26:51.891Z</time>
      </trkpt>
      <trkpt lat="44.21295" lon="6.28171">
        <ele>954.7</ele>
        <time>2021-09-19T10:26:53.474Z</time>
      </trkpt>
      <trkpt lat="44.21301" lon="6.28171">
        <ele>954.2</ele>
        <time>2021-09-19T10:26:55.090Z</time>
      </trkpt>
      <trkpt lat="44.21307" lon="6.28172">
        <ele>953.9</ele>
        <time>2021-09-19T10:26:56.802Z</time>
      </trkpt>
      <trkpt lat="44.2131" lon="6.28172">
        <ele>953.6</ele>
        <time>2021-09-19T10:26:57.610Z</time>
      </trkpt>
      <trkpt lat="44.21314" lon="6.28169">
        <ele>952.4</ele>
        <time>2021-09-19T10:26:58.834Z</time>
      </trkpt>
      <trkpt lat="44.21314" lon="6.28165">
        <ele>951.1</ele>
        <time>2021-09-19T10:26:59.606Z</time>
      </trkpt>
      <trkpt lat="44.21306" lon="6.28157">
        <ele>949.6</ele>
        <time>2021-09-19T10:27:02.258Z</time>
      </trkpt>
      <trkpt lat="44.21302" lon="6.28155">
        <ele>949.3</ele>
        <time>2021-09-19T10:27:03.402Z</time>
      </trkpt>
      <trkpt lat="44.21293" lon="6.28156">
        <ele>950.2</ele>
        <time>2021-09-19T10:27:39.027Z</time>
      </trkpt>
      <trkpt lat="44.21291" lon="6.28151">
        <ele>948.8</ele>
        <time>2021-09-19T10:27:40.132Z</time>
      </trkpt>
      <trkpt lat="44.21295" lon="6.28144">
        <ele>946.6</ele>
        <time>2021-09-19T10:27:41.861Z</time>
      </trkpt>
      <trkpt lat="44.21301" lon="6.28141">
        <ele>945.4</ele>
        <time>2021-09-19T10:27:43.578Z</time>
      </trkpt>
      <trkpt lat="44.2131" lon="6.28134">
        <ele>942.7</ele>
        <time>2021-09-19T10:27:46.354Z</time>
      </trkpt>
      <trkpt lat="44.21313" lon="6.2813">
        <ele>941.7</ele>
        <time>2021-09-19T10:27:47.472Z</time>
      </trkpt>
      <trkpt lat="44.21308" lon="6.28124">
        <ele>940.1</ele>
        <time>2021-09-19T10:27:49.248Z</time>
      </trkpt>
      <trkpt lat="44.21305" lon="6.28119">
        <ele>938.7</ele>
        <time>2021-09-19T10:27:50.507Z</time>
      </trkpt>
      <trkpt lat="44.21302" lon="6.28115">
        <ele>937.9</ele>
        <time>2021-09-19T10:27:51.625Z</time>
      </trkpt>
      <trkpt lat="44.21299" lon="6.28115">
        <ele>938</ele>
        <time>2021-09-19T10:27:58.198Z</time>
      </trkpt>
      <trkpt lat="44.21295" lon="6.28116">
        <ele>938.3</ele>
        <time>2021-09-19T10:28:11.013Z</time>
      </trkpt>
      <trkpt lat="44.21287" lon="6.28123">
        <ele>940.5</ele>
        <time>2021-09-19T10:29:06.449Z</time>
      </trkpt>
      <trkpt lat="44.21274" lon="6.28128">
        <ele>942.7</ele>
        <time>2021-09-19T10:30:25.612Z</time>
      </trkpt>
      <trkpt lat="44.21271" lon="6.28122">
        <ele>940.7</ele>
        <time>2021-09-19T10:30:27.024Z</time>
      </trkpt>
      <trkpt lat="44.21276" lon="6.28113">
        <ele>937.8</ele>
        <time>2021-09-19T10:30:29.223Z</time>
      </trkpt>
      <trkpt lat="44.21286" lon="6.28093">
        <ele>931.4</ele>
        <time>2021-09-19T10:30:33.932Z</time>
      </trkpt>
      <trkpt lat="44.21286" lon="6.2808">
        <ele>927.6</ele>
        <time>2021-09-19T10:30:36.442Z</time>
      </trkpt>
      <trkpt lat="44.21286" lon="6.28066">
        <ele>924</ele>
        <time>2021-09-19T10:30:39.145Z</time>
      </trkpt>
      <trkpt lat="44.21289" lon="6.28054">
        <ele>921.1</ele>
        <time>2021-09-19T10:30:41.599Z</time>
      </trkpt>
      <trkpt lat="44.21289" lon="6.28039">
        <ele>917.3</ele>
        <time>2021-09-19T10:30:44.495Z</time>
      </trkpt>
      <trkpt lat="44.21288" lon="6.28032">
        <ele>915.3</ele>
        <time>2021-09-19T10:30:45.874Z</time>
      </trkpt>
      <trkpt lat="44.21289" lon="6.28024">
        <ele>913.5</ele>
        <time>2021-09-19T10:30:47.442Z</time>
      </trkpt>
      <trkpt lat="44.21292" lon="6.28021">
        <ele>912.8</ele>
        <time>2021-09-19T10:30:48.436Z</time>
      </trkpt>
      <trkpt lat="44.21301" lon="6.28023">
        <ele>913.8</ele>
        <time>2021-09-19T10:31:28.283Z</time>
      </trkpt>
      <trkpt lat="44.21304" lon="6.28024">
        <ele>914.2</ele>
        <time>2021-09-19T10:31:45.459Z</time>
      </trkpt>
      <trkpt lat="44.21308" lon="6.2802">
        <ele>913.3</ele>
        <time>2021-09-19T10:31:46.785Z</time>
      </trkpt>
      <trkpt lat="44.21311" lon="6.28013">
        <ele>911.9</ele>
        <time>2021-09-19T10:31:48.360Z</time>
      </trkpt>
      <trkpt lat="44.21315" lon="6.27993">
        <ele>907.3</ele>
        <time>2021-09-19T10:31:52.369Z</time>
      </trkpt>
      <trkpt lat="44.21318" lon="6.27982">
        <ele>905.1</ele>
        <time>2021-09-19T10:31:54.642Z</time>
      </trkpt>
      <trkpt lat="44.21321" lon="6.27975">
        <ele>903.7</ele>
        <time>2021-09-19T10:31:56.217Z</time>
      </trkpt>
      <trkpt lat="44.21331" lon="6.2796">
        <ele>901.1</ele>
        <time>2021-09-19T10:32:00.172Z</time>
      </trkpt>
      <trkpt lat="44.21335" lon="6.27965">
        <ele>901.7</ele>
        <time>2021-09-19T10:32:24.169Z</time>
      </trkpt>
      <trkpt lat="44.21338" lon="6.27965">
        <ele>900.4</ele>
        <time>2021-09-19T10:32:24.977Z</time>
      </trkpt>
      <trkpt lat="44.2134" lon="6.2796">
        <ele>898.3</ele>
        <time>2021-09-19T10:32:26.083Z</time>
      </trkpt>
      <trkpt lat="44.21342" lon="6.27948">
        <ele>895.4</ele>
        <time>2021-09-19T10:32:28.462Z</time>
      </trkpt>
      <trkpt lat="44.21342" lon="6.27943">
        <ele>894.3</ele>
        <time>2021-09-19T10:32:29.427Z</time>
      </trkpt>
      <trkpt lat="44.2134" lon="6.27932">
        <ele>892.5</ele>
        <time>2021-09-19T10:32:31.618Z</time>
      </trkpt>
      <trkpt lat="44.21336" lon="6.27922">
        <ele>892.1</ele>
        <time>2021-09-19T10:32:33.963Z</time>
      </trkpt>
      <trkpt lat="44.21333" lon="6.27915">
        <ele>891.6</ele>
        <time>2021-09-19T10:32:35.538Z</time>
      </trkpt>
      <trkpt lat="44.21336" lon="6.2791">
        <ele>889.8</ele>
        <time>2021-09-19T10:32:36.797Z</time>
      </trkpt>
      <trkpt lat="44.21344" lon="6.27908">
        <ele>886.7</ele>
        <time>2021-09-19T10:32:38.986Z</time>
      </trkpt>
      <trkpt lat="44.21347" lon="6.27906">
        <ele>885.2</ele>
        <time>2021-09-19T10:32:39.882Z</time>
      </trkpt>
      <trkpt lat="44.21349" lon="6.27902">
        <ele>883.8</ele>
        <time>2021-09-19T10:32:40.824Z</time>
      </trkpt>
      <trkpt lat="44.21349" lon="6.27897">
        <ele>882.9</ele>
        <time>2021-09-19T10:32:41.789Z</time>
      </trkpt>
      <trkpt lat="44.21349" lon="6.27885">
        <ele>881</ele>
        <time>2021-09-19T10:32:44.106Z</time>
      </trkpt>
      <trkpt lat="44.21348" lon="6.27877">
        <ele>880.1</ele>
        <time>2021-09-19T10:32:45.674Z</time>
      </trkpt>
      <trkpt lat="44.21345" lon="6.27863">
        <ele>878.6</ele>
        <time>2021-09-19T10:32:48.496Z</time>
      </trkpt>
      <trkpt lat="44.21342" lon="6.27855">
        <ele>878</ele>
        <time>2021-09-19T10:32:50.239Z</time>
      </trkpt>
      <trkpt lat="44.21342" lon="6.27847">
        <ele>876.7</ele>
        <time>2021-09-19T10:32:51.784Z</time>
      </trkpt>
      <trkpt lat="44.21344" lon="6.27842">
        <ele>875.2</ele>
        <time>2021-09-19T10:32:52.889Z</time>
      </trkpt>
      <trkpt lat="44.21349" lon="6.27838">
        <ele>873.3</ele>
        <time>2021-09-19T10:32:54.442Z</time>
      </trkpt>
      <trkpt lat="44.21358" lon="6.27825">
        <ele>869.2</ele>
        <time>2021-09-19T10:32:57.932Z</time>
      </trkpt>
      <trkpt lat="44.21362" lon="6.2782">
        <ele>867.7</ele>
        <time>2021-09-19T10:32:59.379Z</time>
      </trkpt>
      <trkpt lat="44.21367" lon="6.27806">
        <ele>864.8</ele>
        <time>2021-09-19T10:33:02.399Z</time>
      </trkpt>
      <trkpt lat="44.21373" lon="6.27799">
        <ele>863.1</ele>
        <time>2021-09-19T10:33:04.506Z</time>
      </trkpt>
      <trkpt lat="44.21378" lon="6.2779">
        <ele>861.6</ele>
        <time>2021-09-19T10:33:06.705Z</time>
      </trkpt>
      <trkpt lat="44.21379" lon="6.27786">
        <ele>861.1</ele>
        <time>2021-09-19T10:33:07.523Z</time>
      </trkpt>
      <trkpt lat="44.21379" lon="6.27782">
        <ele>860.6</ele>
        <time>2021-09-19T10:33:08.295Z</time>
      </trkpt>
      <trkpt lat="44.21376" lon="6.27773">
        <ele>859.8</ele>
        <time>2021-09-19T10:33:10.211Z</time>
      </trkpt>
      <trkpt lat="44.21375" lon="6.27767">
        <ele>859</ele>
        <time>2021-09-19T10:33:11.401Z</time>
      </trkpt>
      <trkpt lat="44.21378" lon="6.27762">
        <ele>858.5</ele>
        <time>2021-09-19T10:33:12.660Z</time>
      </trkpt>
      <trkpt lat="44.21379" lon="6.27758">
        <ele>858.1</ele>
        <time>2021-09-19T10:33:13.478Z</time>
      </trkpt>
      <trkpt lat="44.21376" lon="6.27756">
        <ele>857.7</ele>
        <time>2021-09-19T10:33:14.374Z</time>
      </trkpt>
      <trkpt lat="44.21371" lon="6.27759">
        <ele>858</ele>
        <time>2021-09-19T10:33:29.361Z</time>
      </trkpt>
      <trkpt lat="44.21365" lon="6.27768">
        <ele>859.2</ele>
        <time>2021-09-19T10:34:21.078Z</time>
      </trkpt>
      <trkpt lat="44.21355" lon="6.27777">
        <ele>861.1</ele>
        <time>2021-09-19T10:35:30.937Z</time>
      </trkpt>
      <trkpt lat="44.21353" lon="6.27782">
        <ele>861.9</ele>
        <time>2021-09-19T10:35:55.030Z</time>
      </trkpt>
      <trkpt lat="44.21349" lon="6.27783">
        <ele>862.4</ele>
        <time>2021-09-19T10:36:15.770Z</time>
      </trkpt>
      <trkpt lat="44.21349" lon="6.27776">
        <ele>861.1</ele>
        <time>2021-09-19T10:36:17.122Z</time>
      </trkpt>
      <trkpt lat="44.21351" lon="6.27767">
        <ele>859.1</ele>
        <time>2021-09-19T10:36:18.941Z</time>
      </trkpt>
      <trkpt lat="44.21352" lon="6.2776">
        <ele>857.9</ele>
        <time>2021-09-19T10:36:20.319Z</time>
      </trkpt>
      <trkpt lat="44.21358" lon="6.27748">
        <ele>855.7</ele>
        <time>2021-09-19T10:36:23.145Z</time>
      </trkpt>
      <trkpt lat="44.2136" lon="6.27735">
        <ele>851.6</ele>
        <time>2021-09-19T10:36:25.712Z</time>
      </trkpt>
      <trkpt lat="44.21363" lon="6.27728">
        <ele>849.8</ele>
        <time>2021-09-19T10:36:27.287Z</time>
      </trkpt>
      <trkpt lat="44.21368" lon="6.27723">
        <ele>848.4</ele>
        <time>2021-09-19T10:36:28.944Z</time>
      </trkpt>
      <trkpt lat="44.21374" lon="6.27721">
        <ele>847.9</ele>
        <time>2021-09-19T10:36:30.606Z</time>
      </trkpt>
      <trkpt lat="44.21377" lon="6.27721">
        <ele>848.1</ele>
        <time>2021-09-19T10:36:39.568Z</time>
      </trkpt>
      <trkpt lat="44.21389" lon="6.27723">
        <ele>849.3</ele>
        <time>2021-09-19T10:37:27.074Z</time>
      </trkpt>
      <trkpt lat="44.21403" lon="6.27722">
        <ele>849.5</ele>
        <time>2021-09-19T10:37:51.617Z</time>
      </trkpt>
      <trkpt lat="44.21418" lon="6.27721">
        <ele>849.6</ele>
        <time>2021-09-19T10:38:15.957Z</time>
      </trkpt>
      <trkpt lat="44.21424" lon="6.27718">
        <ele>847.6</ele>
        <time>2021-09-19T10:38:17.674Z</time>
      </trkpt>
      <trkpt lat="44.2143" lon="6.27713">
        <ele>845</ele>
        <time>2021-09-19T10:38:19.557Z</time>
      </trkpt>
      <trkpt lat="44.21433" lon="6.27712">
        <ele>844</ele>
        <time>2021-09-19T10:38:20.388Z</time>
      </trkpt>
      <trkpt lat="44.21436" lon="6.27713">
        <ele>843.7</ele>
        <time>2021-09-19T10:38:21.219Z</time>
      </trkpt>
      <trkpt lat="44.21443" lon="6.27722">
        <ele>844.4</ele>
        <time>2021-09-19T10:38:51.170Z</time>
      </trkpt>
      <trkpt lat="44.21447" lon="6.27727">
        <ele>845</ele>
        <time>2021-09-19T10:39:15.167Z</time>
      </trkpt>
      <trkpt lat="44.2145" lon="6.27739">
        <ele>847.1</ele>
        <time>2021-09-19T10:40:08.641Z</time>
      </trkpt>
      <trkpt lat="44.21453" lon="6.27742">
        <ele>847.1</ele>
        <time>2021-09-19T10:40:14.259Z</time>
      </trkpt>
      <trkpt lat="44.21456" lon="6.27744">
        <ele>846.7</ele>
        <time>2021-09-19T10:40:15.154Z</time>
      </trkpt>
      <trkpt lat="44.21461" lon="6.27738">
        <ele>844.2</ele>
        <time>2021-09-19T10:40:16.931Z</time>
      </trkpt>
      <trkpt lat="44.21461" lon="6.27731">
        <ele>842.8</ele>
        <time>2021-09-19T10:40:18.283Z</time>
      </trkpt>
      <trkpt lat="44.21461" lon="6.2772">
        <ele>840.3</ele>
        <time>2021-09-19T10:40:20.407Z</time>
      </trkpt>
      <trkpt lat="44.21461" lon="6.27715">
        <ele>839.3</ele>
        <time>2021-09-19T10:40:21.372Z</time>
      </trkpt>
      <trkpt lat="44.21464" lon="6.27712">
        <ele>838</ele>
        <time>2021-09-19T10:40:22.366Z</time>
      </trkpt>
      <trkpt lat="44.21466" lon="6.27708">
        <ele>836.7</ele>
        <time>2021-09-19T10:40:23.308Z</time>
      </trkpt>
      <trkpt lat="44.21467" lon="6.27697">
        <ele>834.3</ele>
        <time>2021-09-19T10:40:25.449Z</time>
      </trkpt>
      <trkpt lat="44.21474" lon="6.27698">
        <ele>833.5</ele>
        <time>2021-09-19T10:40:27.345Z</time>
      </trkpt>
      <trkpt lat="44.21476" lon="6.27693">
        <ele>832.1</ele>
        <time>2021-09-19T10:40:28.450Z</time>
      </trkpt>
      <trkpt lat="44.21474" lon="6.27688">
        <ele>831.7</ele>
        <time>2021-09-19T10:40:29.556Z</time>
      </trkpt>
      <trkpt lat="44.21469" lon="6.27678">
        <ele>830.1</ele>
        <time>2021-09-19T10:40:31.910Z</time>
      </trkpt>
      <trkpt lat="44.21469" lon="6.27668">
        <ele>828.2</ele>
        <time>2021-09-19T10:40:33.841Z</time>
      </trkpt>
      <trkpt lat="44.2147" lon="6.27664">
        <ele>827.1</ele>
        <time>2021-09-19T10:40:34.659Z</time>
      </trkpt>
      <trkpt lat="44.21472" lon="6.27663">
        <ele>826.7</ele>
        <time>2021-09-19T10:40:35.231Z</time>
      </trkpt>
      <trkpt lat="44.21476" lon="6.27663">
        <ele>826.4</ele>
        <time>2021-09-19T10:40:36.309Z</time>
      </trkpt>
      <trkpt lat="44.2148" lon="6.27661">
        <ele>825.5</ele>
        <time>2021-09-19T10:40:37.454Z</time>
      </trkpt>
      <trkpt lat="44.21484" lon="6.27661">
        <ele>825.1</ele>
        <time>2021-09-19T10:40:38.531Z</time>
      </trkpt>
      <trkpt lat="44.21485" lon="6.27656">
        <ele>824</ele>
        <time>2021-09-19T10:40:39.533Z</time>
      </trkpt>
      <trkpt lat="44.21479" lon="6.2765">
        <ele>823</ele>
        <time>2021-09-19T10:40:41.522Z</time>
      </trkpt>
      <trkpt lat="44.21477" lon="6.27645">
        <ele>822.2</ele>
        <time>2021-09-19T10:40:42.628Z</time>
      </trkpt>
      <trkpt lat="44.21475" lon="6.27641">
        <ele>821.3</ele>
        <time>2021-09-19T10:40:43.569Z</time>
      </trkpt>
      <trkpt lat="44.21479" lon="6.2764">
        <ele>820.7</ele>
        <time>2021-09-19T10:40:44.664Z</time>
      </trkpt>
      <trkpt lat="44.21485" lon="6.27635">
        <ele>819</ele>
        <time>2021-09-19T10:40:46.547Z</time>
      </trkpt>
      <trkpt lat="44.21491" lon="6.27633">
        <ele>818.2</ele>
        <time>2021-09-19T10:40:48.209Z</time>
      </trkpt>
      <trkpt lat="44.21494" lon="6.27632">
        <ele>817.8</ele>
        <time>2021-09-19T10:40:49.040Z</time>
      </trkpt>
      <trkpt lat="44.21496" lon="6.27627">
        <ele>816.7</ele>
        <time>2021-09-19T10:40:50.145Z</time>
      </trkpt>
      <trkpt lat="44.215" lon="6.27627">
        <ele>816.5</ele>
        <time>2021-09-19T10:40:51.275Z</time>
      </trkpt>
      <trkpt lat="44.21506" lon="6.2762">
        <ele>814.6</ele>
        <time>2021-09-19T10:40:53.382Z</time>
      </trkpt>
      <trkpt lat="44.21511" lon="6.27615">
        <ele>813.5</ele>
        <time>2021-09-19T10:40:55.039Z</time>
      </trkpt>
      <trkpt lat="44.21514" lon="6.27611">
        <ele>812.4</ele>
        <time>2021-09-19T10:40:56.157Z</time>
      </trkpt>
      <trkpt lat="44.21517" lon="6.27607">
        <ele>811.3</ele>
        <time>2021-09-19T10:40:57.275Z</time>
      </trkpt>
      <trkpt lat="44.21515" lon="6.27598">
        <ele>809.5</ele>
        <time>2021-09-19T10:40:59.095Z</time>
      </trkpt>
      <trkpt lat="44.21515" lon="6.27592">
        <ele>808</ele>
        <time>2021-09-19T10:41:00.253Z</time>
      </trkpt>
      <trkpt lat="44.21538" lon="6.27601">
        <ele>808.9</ele>
        <time>2021-09-19T10:41:55.768Z</time>
      </trkpt>
      <trkpt lat="44.21547" lon="6.27607">
        <ele>809.9</ele>
        <time>2021-09-19T10:42:35.344Z</time>
      </trkpt>
      <trkpt lat="44.21556" lon="6.27612">
        <ele>810.8</ele>
        <time>2021-09-19T10:43:11.206Z</time>
      </trkpt>
      <trkpt lat="44.21565" lon="6.27617">
        <ele>811.6</ele>
        <time>2021-09-19T10:43:43.984Z</time>
      </trkpt>
      <trkpt lat="44.21575" lon="6.27621">
        <ele>812.3</ele>
        <time>2021-09-19T10:44:15.206Z</time>
      </trkpt>
      <trkpt lat="44.21585" lon="6.27625">
        <ele>813.7</ele>
        <time>2021-09-19T10:45:16.275Z</time>
      </trkpt>
      <trkpt lat="44.21594" lon="6.27626">
        <ele>818.6</ele>
        <time>2021-09-19T10:46:09.277Z</time>
      </trkpt>
      <trkpt lat="44.21603" lon="6.27626">
        <ele>823.2</ele>
        <time>2021-09-19T10:47:02.111Z</time>
      </trkpt>
      <trkpt lat="44.21614" lon="6.27624">
        <ele>828.1</ele>
        <time>2021-09-19T10:48:07.232Z</time>
      </trkpt>
      <trkpt lat="44.21624" lon="6.27623">
        <ele>832.9</ele>
        <time>2021-09-19T10:49:06.087Z</time>
      </trkpt>
      <trkpt lat="44.21634" lon="6.2762">
        <ele>837</ele>
        <time>2021-09-19T10:50:06.134Z</time>
      </trkpt>
      <trkpt lat="44.21644" lon="6.27614">
        <ele>840.8</ele>
        <time>2021-09-19T10:51:10.036Z</time>
      </trkpt>
      <trkpt lat="44.21653" lon="6.27608">
        <ele>844.4</ele>
        <time>2021-09-19T10:52:08.592Z</time>
      </trkpt>
      <trkpt lat="44.21663" lon="6.27604">
        <ele>848.6</ele>
        <time>2021-09-19T10:53:09.661Z</time>
      </trkpt>
      <trkpt lat="44.21672" lon="6.27604">
        <ele>852.4</ele>
        <time>2021-09-19T10:54:02.496Z</time>
      </trkpt>
      <trkpt lat="44.21682" lon="6.27607">
        <ele>856.3</ele>
        <time>2021-09-19T10:55:02.542Z</time>
      </trkpt>
      <trkpt lat="44.21691" lon="6.27605">
        <ele>858.7</ele>
        <time>2021-09-19T10:55:56.042Z</time>
      </trkpt>
      <trkpt lat="44.217" lon="6.27599">
        <ele>859</ele>
        <time>2021-09-19T10:56:16.996Z</time>
      </trkpt>
      <trkpt lat="44.2171" lon="6.27593">
        <ele>858</ele>
        <time>2021-09-19T10:56:19.928Z</time>
      </trkpt>
      <trkpt lat="44.2172" lon="6.27587">
        <ele>856.4</ele>
        <time>2021-09-19T10:56:22.861Z</time>
      </trkpt>
      <trkpt lat="44.2173" lon="6.27582">
        <ele>855.3</ele>
        <time>2021-09-19T10:56:25.723Z</time>
      </trkpt>
      <trkpt lat="44.2174" lon="6.27578">
        <ele>857.1</ele>
        <time>2021-09-19T10:57:26.792Z</time>
      </trkpt>
      <trkpt lat="44.2175" lon="6.27579">
        <ele>858.3</ele>
        <time>2021-09-19T10:58:15.895Z</time>
      </trkpt>
      <trkpt lat="44.2176" lon="6.27581">
        <ele>861</ele>
        <time>2021-09-19T10:59:15.200Z</time>
      </trkpt>
      <trkpt lat="44.21769" lon="6.27576">
        <ele>863.4</ele>
        <time>2021-09-19T11:00:12.068Z</time>
      </trkpt>
      <trkpt lat="44.21776" lon="6.27563">
        <ele>864.3</ele>
        <time>2021-09-19T11:00:49.816Z</time>
      </trkpt>
      <trkpt lat="44.21782" lon="6.27551">
        <ele>864.2</ele>
        <time>2021-09-19T11:00:54.381Z</time>
      </trkpt>
      <trkpt lat="44.21791" lon="6.27538">
        <ele>833.7</ele>
        <time>2021-09-19T11:00:57.871Z</time>
      </trkpt>
      <trkpt lat="44.21799" lon="6.27529">
        <ele>829.5</ele>
        <time>2021-09-19T11:01:00.639Z</time>
      </trkpt>
      <trkpt lat="44.21815" lon="6.2752">
        <ele>835.6</ele>
        <time>2021-09-19T11:02:41.912Z</time>
      </trkpt>
      <trkpt lat="44.21818" lon="6.2751">
        <ele>832.6</ele>
        <time>2021-09-19T11:02:44.005Z</time>
      </trkpt>
      <trkpt lat="44.21824" lon="6.27498">
        <ele>851.4</ele>
        <time>2021-09-19T11:03:45.565Z</time>
      </trkpt>
      <trkpt lat="44.21829" lon="6.27484">
        <ele>853.3</ele>
        <time>2021-09-19T11:04:51.376Z</time>
      </trkpt>
      <trkpt lat="44.21841" lon="6.27475">
        <ele>854.2</ele>
        <time>2021-09-19T11:05:31.896Z</time>
      </trkpt>
      <trkpt lat="44.21848" lon="6.27465">
        <ele>855.4</ele>
        <time>2021-09-19T11:06:21.016Z</time>
      </trkpt>
      <trkpt lat="44.21855" lon="6.27458">
        <ele>855.7</ele>
        <time>2021-09-19T11:06:40.265Z</time>
      </trkpt>
      <trkpt lat="44.21862" lon="6.27447">
        <ele>855.2</ele>
        <time>2021-09-19T11:06:43.311Z</time>
      </trkpt>
      <trkpt lat="44.21869" lon="6.27437">
        <ele>853.8</ele>
        <time>2021-09-19T11:06:46.010Z</time>
      </trkpt>
      <trkpt lat="44.21875" lon="6.27425">
        <ele>851.5</ele>
        <time>2021-09-19T11:06:48.835Z</time>
      </trkpt>
      <trkpt lat="44.2188" lon="6.27415">
        <ele>849.3</ele>
        <time>2021-09-19T11:06:51.189Z</time>
      </trkpt>
      <trkpt lat="44.21885" lon="6.27405">
        <ele>848.9</ele>
        <time>2021-09-19T11:06:53.752Z</time>
      </trkpt>
      <trkpt lat="44.21888" lon="6.27394">
        <ele>849.1</ele>
        <time>2021-09-19T11:07:10.151Z</time>
      </trkpt>
      <trkpt lat="44.2189" lon="6.27379">
        <ele>849.9</ele>
        <time>2021-09-19T11:07:44.457Z</time>
      </trkpt>
      <trkpt lat="44.21894" lon="6.27367">
        <ele>848.8</ele>
        <time>2021-09-19T11:07:47.013Z</time>
      </trkpt>
      <trkpt lat="44.219" lon="6.27355">
        <ele>846.1</ele>
        <time>2021-09-19T11:07:49.838Z</time>
      </trkpt>
      <trkpt lat="44.21908" lon="6.27345">
        <ele>841.6</ele>
        <time>2021-09-19T11:07:52.731Z</time>
      </trkpt>
      <trkpt lat="44.21914" lon="6.27334">
        <ele>837.4</ele>
        <time>2021-09-19T11:07:55.400Z</time>
      </trkpt>
      <trkpt lat="44.21919" lon="6.27322">
        <ele>837.9</ele>
        <time>2021-09-19T11:08:21.920Z</time>
      </trkpt>
      <trkpt lat="44.21926" lon="6.2731">
        <ele>840.3</ele>
        <time>2021-09-19T11:09:27.016Z</time>
      </trkpt>
      <trkpt lat="44.2193" lon="6.27297">
        <ele>842.9</ele>
        <time>2021-09-19T11:10:26.538Z</time>
      </trkpt>
      <trkpt lat="44.21935" lon="6.27285">
        <ele>844.4</ele>
        <time>2021-09-19T11:11:24.937Z</time>
      </trkpt>
      <trkpt lat="44.21941" lon="6.27273">
        <ele>845.3</ele>
        <time>2021-09-19T11:12:01.404Z</time>
      </trkpt>
      <trkpt lat="44.21955" lon="6.27259">
        <ele>843.6</ele>
        <time>2021-09-19T11:12:06.044Z</time>
      </trkpt>
      <trkpt lat="44.21964" lon="6.27251">
        <ele>841.6</ele>
        <time>2021-09-19T11:12:08.919Z</time>
      </trkpt>
      <trkpt lat="44.21976" lon="6.27243">
        <ele>839.6</ele>
        <time>2021-09-19T11:12:12.502Z</time>
      </trkpt>
      <trkpt lat="44.21988" lon="6.27234">
        <ele>838.1</ele>
        <time>2021-09-19T11:12:16.172Z</time>
      </trkpt>
      <trkpt lat="44.21995" lon="6.27222">
        <ele>839.3</ele>
        <time>2021-09-19T11:13:03.880Z</time>
      </trkpt>
      <trkpt lat="44.22007" lon="6.27208">
        <ele>841</ele>
        <time>2021-09-19T11:14:11.511Z</time>
      </trkpt>
      <trkpt lat="44.22014" lon="6.2719">
        <ele>845.1</ele>
        <time>2021-09-19T11:15:37.671Z</time>
      </trkpt>
      <trkpt lat="44.22025" lon="6.27164">
        <ele>850</ele>
        <time>2021-09-19T11:17:44.696Z</time>
      </trkpt>
      <trkpt lat="44.22033" lon="6.2715">
        <ele>852</ele>
        <time>2021-09-19T11:19:00.028Z</time>
      </trkpt>
      <trkpt lat="44.22045" lon="6.27135">
        <ele>852.7</ele>
        <time>2021-09-19T11:19:40.758Z</time>
      </trkpt>
      <trkpt lat="44.22055" lon="6.27098">
        <ele>857.4</ele>
        <time>2021-09-19T11:22:27.124Z</time>
      </trkpt>
      <trkpt lat="44.22052" lon="6.27101">
        <ele>858</ele>
        <time>2021-09-19T11:22:48.791Z</time>
      </trkpt>
      <trkpt lat="44.22044" lon="6.27092">
        <ele>863</ele>
        <time>2021-09-19T11:23:49.117Z</time>
      </trkpt>
      <trkpt lat="44.22008" lon="6.27082">
        <ele>879.7</ele>
        <time>2021-09-19T11:27:24.601Z</time>
      </trkpt>
      <trkpt lat="44.21992" lon="6.271">
        <ele>881</ele>
        <time>2021-09-19T11:28:24.498Z</time>
      </trkpt>
      <trkpt lat="44.21985" lon="6.27107">
        <ele>881.7</ele>
        <time>2021-09-19T11:28:53.325Z</time>
      </trkpt>
      <trkpt lat="44.21982" lon="6.27074">
        <ele>893</ele>
        <time>2021-09-19T11:31:13.275Z</time>
      </trkpt>
      <trkpt lat="44.21928" lon="6.27067">
        <ele>921.1</ele>
        <time>2021-09-19T11:36:31.646Z</time>
      </trkpt>
      <trkpt lat="44.21915" lon="6.27057">
        <ele>929.8</ele>
        <time>2021-09-19T11:37:58.791Z</time>
      </trkpt>
      <trkpt lat="44.21922" lon="6.27043">
        <ele>929.1</ele>
        <time>2021-09-19T11:38:02.043Z</time>
      </trkpt>
      <trkpt lat="44.21919" lon="6.27014">
        <ele>937.7</ele>
        <time>2021-09-19T11:40:05.317Z</time>
      </trkpt>
      <trkpt lat="44.219" lon="6.27012">
        <ele>947.5</ele>
        <time>2021-09-19T11:41:57.173Z</time>
      </trkpt>
      <trkpt lat="44.21877" lon="6.27005">
        <ele>960.4</ele>
        <time>2021-09-19T11:44:15.369Z</time>
      </trkpt>
      <trkpt lat="44.2187" lon="6.27001">
        <ele>964.7</ele>
        <time>2021-09-19T11:44:59.774Z</time>
      </trkpt>
      <trkpt lat="44.21828" lon="6.26997">
        <ele>985.4</ele>
        <time>2021-09-19T11:49:06.908Z</time>
      </trkpt>
      <trkpt lat="44.21732" lon="6.27076">
        <ele>1000.2</ele>
        <time>2021-09-19T11:59:55.172Z</time>
      </trkpt>
      <trkpt lat="44.21706" lon="6.27057">
        <ele>999.9</ele>
        <time>2021-09-19T12:00:07.831Z</time>
      </trkpt>
      <trkpt lat="44.21703" lon="6.2704">
        <ele>1003.7</ele>
        <time>2021-09-19T12:01:21.493Z</time>
      </trkpt>
      <trkpt lat="44.21699" lon="6.2703">
        <ele>1005.8</ele>
        <time>2021-09-19T12:02:09.676Z</time>
      </trkpt>
      <trkpt lat="44.21693" lon="6.27022">
        <ele>1007.4</ele>
        <time>2021-09-19T12:02:58.396Z</time>
      </trkpt>
      <trkpt lat="44.21684" lon="6.27018">
        <ele>1007.7</ele>
        <time>2021-09-19T12:03:18.670Z</time>
      </trkpt>
      <trkpt lat="44.21678" lon="6.2701">
        <ele>1009.6</ele>
        <time>2021-09-19T12:04:07.389Z</time>
      </trkpt>
      <trkpt lat="44.21677" lon="6.26993">
        <ele>1015.1</ele>
        <time>2021-09-19T12:05:19.156Z</time>
      </trkpt>
      <trkpt lat="44.21667" lon="6.26976">
        <ele>1021.3</ele>
        <time>2021-09-19T12:06:51.688Z</time>
      </trkpt>
      <trkpt lat="44.2166" lon="6.26966">
        <ele>1023.3</ele>
        <time>2021-09-19T12:07:50.500Z</time>
      </trkpt>
      <trkpt lat="44.21656" lon="6.26954">
        <ele>1026.1</ele>
        <time>2021-09-19T12:08:46.183Z</time>
      </trkpt>
      <trkpt lat="44.21652" lon="6.26938">
        <ele>1030.5</ele>
        <time>2021-09-19T12:09:57.480Z</time>
      </trkpt>
      <trkpt lat="44.21643" lon="6.26902">
        <ele>1039.4</ele>
        <time>2021-09-19T12:12:37.897Z</time>
      </trkpt>
      <trkpt lat="44.21654" lon="6.26783">
        <ele>1076.6</ele>
        <time>2021-09-19T12:21:02.728Z</time>
      </trkpt>
      <trkpt lat="44.21668" lon="6.26687">
        <ele>1101.2</ele>
        <time>2021-09-19T12:27:54.917Z</time>
      </trkpt>
      <trkpt lat="44.21692" lon="6.2648">
        <ele>1134.2</ele>
        <time>2021-09-19T12:42:37.172Z</time>
      </trkpt>
      <trkpt lat="44.2169" lon="6.26462">
        <ele>1137.8</ele>
        <time>2021-09-19T12:43:53.810Z</time>
      </trkpt>
      <trkpt lat="44.2169" lon="6.26449">
        <ele>1140.3</ele>
        <time>2021-09-19T12:44:48.506Z</time>
      </trkpt>
      <trkpt lat="44.21686" lon="6.26427">
        <ele>1145.1</ele>
        <time>2021-09-19T12:46:24.001Z</time>
      </trkpt>
      <trkpt lat="44.21687" lon="6.26412">
        <ele>1147.4</ele>
        <time>2021-09-19T12:47:27.385Z</time>
      </trkpt>
      <trkpt lat="44.21685" lon="6.26388">
        <ele>1150.3</ele>
        <time>2021-09-19T12:49:09.043Z</time>
      </trkpt>
      <trkpt lat="44.21681" lon="6.26371">
        <ele>1153</ele>
        <time>2021-09-19T12:50:24.324Z</time>
      </trkpt>
      <trkpt lat="44.21677" lon="6.2636">
        <ele>1155.2</ele>
        <time>2021-09-19T12:51:16.222Z</time>
      </trkpt>
      <trkpt lat="44.21676" lon="6.26339">
        <ele>1157.8</ele>
        <time>2021-09-19T12:52:44.773Z</time>
      </trkpt>
      <trkpt lat="44.21673" lon="6.26324">
        <ele>1160.6</ele>
        <time>2021-09-19T12:53:50.295Z</time>
      </trkpt>
      <trkpt lat="44.21671" lon="6.26306">
        <ele>1163.7</ele>
        <time>2021-09-19T12:55:06.933Z</time>
      </trkpt>
      <trkpt lat="44.21668" lon="6.26281">
        <ele>1168.2</ele>
        <time>2021-09-19T12:56:53.582Z</time>
      </trkpt>
      <trkpt lat="44.21665" lon="6.26249">
        <ele>1173.7</ele>
        <time>2021-09-19T12:59:09.367Z</time>
      </trkpt>
      <trkpt lat="44.21641" lon="6.2619">
        <ele>1187.6</ele>
        <time>2021-09-19T13:03:54.801Z</time>
      </trkpt>
      <trkpt lat="44.21586" lon="6.26129">
        <ele>1215.5</ele>
        <time>2021-09-19T13:10:47.257Z</time>
      </trkpt>
      <trkpt lat="44.21574" lon="6.2616">
        <ele>1215.7</ele>
        <time>2021-09-19T13:11:28.696Z</time>
      </trkpt>
      <trkpt lat="44.21527" lon="6.2621">
        <ele>1212.9</ele>
        <time>2021-09-19T13:11:45.781Z</time>
      </trkpt>
      <trkpt lat="44.21522" lon="6.26229">
        <ele>1213.4</ele>
        <time>2021-09-19T13:12:18.046Z</time>
      </trkpt>
      <trkpt lat="44.21519" lon="6.26248">
        <ele>1214.2</ele>
        <time>2021-09-19T13:12:57.038Z</time>
      </trkpt>
      <trkpt lat="44.2151" lon="6.26276">
        <ele>1216.2</ele>
        <time>2021-09-19T13:14:17.022Z</time>
      </trkpt>
      <trkpt lat="44.21512" lon="6.26292">
        <ele>1215.9</ele>
        <time>2021-09-19T13:14:21.186Z</time>
      </trkpt>
      <trkpt lat="44.21509" lon="6.26307">
        <ele>1217.3</ele>
        <time>2021-09-19T13:15:19.915Z</time>
      </trkpt>
      <trkpt lat="44.21507" lon="6.26322">
        <ele>1218.4</ele>
        <time>2021-09-19T13:16:03.447Z</time>
      </trkpt>
      <trkpt lat="44.21501" lon="6.26334">
        <ele>1221.4</ele>
        <time>2021-09-19T13:17:05.009Z</time>
      </trkpt>
      <trkpt lat="44.21495" lon="6.26351">
        <ele>1216.4</ele>
        <time>2021-09-19T13:17:08.668Z</time>
      </trkpt>
      <trkpt lat="44.21492" lon="6.26367">
        <ele>1211.8</ele>
        <time>2021-09-19T13:17:11.862Z</time>
      </trkpt>
      <trkpt lat="44.21478" lon="6.26381">
        <ele>1204.2</ele>
        <time>2021-09-19T13:17:16.502Z</time>
      </trkpt>
      <trkpt lat="44.21474" lon="6.26369">
        <ele>1204.4</ele>
        <time>2021-09-19T13:17:34.394Z</time>
      </trkpt>
      <trkpt lat="44.21474" lon="6.26372">
        <ele>1204.2</ele>
        <time>2021-09-19T13:17:34.973Z</time>
      </trkpt>
      <trkpt lat="44.21474" lon="6.26367">
        <ele>1204.7</ele>
        <time>2021-09-19T13:17:56.011Z</time>
      </trkpt>
      <trkpt lat="44.21474" lon="6.26365">
        <ele>1205</ele>
        <time>2021-09-19T13:18:04.426Z</time>
      </trkpt>
      <trkpt lat="44.21479" lon="6.26378">
        <ele>1205.2</ele>
        <time>2021-09-19T13:18:23.892Z</time>
      </trkpt>
      <trkpt lat="44.21485" lon="6.26381">
        <ele>1206.8</ele>
        <time>2021-09-19T13:19:01.309Z</time>
      </trkpt>
      <trkpt lat="44.21484" lon="6.26396">
        <ele>1204</ele>
        <time>2021-09-19T13:19:04.217Z</time>
      </trkpt>
      <trkpt lat="44.2148" lon="6.2641">
        <ele>1200.7</ele>
        <time>2021-09-19T13:19:07.127Z</time>
      </trkpt>
      <trkpt lat="44.21477" lon="6.26422">
        <ele>1197.9</ele>
        <time>2021-09-19T13:19:09.581Z</time>
      </trkpt>
      <trkpt lat="44.21475" lon="6.26429">
        <ele>1196.4</ele>
        <time>2021-09-19T13:19:11.036Z</time>
      </trkpt>
      <trkpt lat="44.21475" lon="6.26443">
        <ele>1194.2</ele>
        <time>2021-09-19T13:19:13.740Z</time>
      </trkpt>
      <trkpt lat="44.21472" lon="6.26456">
        <ele>1191.8</ele>
        <time>2021-09-19T13:19:16.377Z</time>
      </trkpt>
      <trkpt lat="44.2147" lon="6.2647">
        <ele>1189.6</ele>
        <time>2021-09-19T13:19:19.133Z</time>
      </trkpt>
      <trkpt lat="44.21469" lon="6.26486">
        <ele>1187.6</ele>
        <time>2021-09-19T13:19:22.234Z</time>
      </trkpt>
      <trkpt lat="44.21465" lon="6.26498">
        <ele>1186.1</ele>
        <time>2021-09-19T13:19:24.789Z</time>
      </trkpt>
      <trkpt lat="44.21461" lon="6.26511">
        <ele>1183.8</ele>
        <time>2021-09-19T13:19:27.521Z</time>
      </trkpt>
      <trkpt lat="44.21453" lon="6.26525">
        <ele>1182.3</ele>
        <time>2021-09-19T13:19:30.978Z</time>
      </trkpt>
      <trkpt lat="44.21451" lon="6.26533">
        <ele>1181.3</ele>
        <time>2021-09-19T13:19:32.614Z</time>
      </trkpt>
      <trkpt lat="44.21447" lon="6.26537">
        <ele>1182</ele>
        <time>2021-09-19T13:20:01.504Z</time>
      </trkpt>
      <trkpt lat="44.21442" lon="6.26547">
        <ele>1182.2</ele>
        <time>2021-09-19T13:20:18.333Z</time>
      </trkpt>
      <trkpt lat="44.21434" lon="6.26552">
        <ele>1184.7</ele>
        <time>2021-09-19T13:21:09.793Z</time>
      </trkpt>
      <trkpt lat="44.21428" lon="6.26563">
        <ele>1186.4</ele>
        <time>2021-09-19T13:22:07.955Z</time>
      </trkpt>
      <trkpt lat="44.21421" lon="6.26574">
        <ele>1189.6</ele>
        <time>2021-09-19T13:23:09.849Z</time>
      </trkpt>
      <trkpt lat="44.21412" lon="6.26581">
        <ele>1188.5</ele>
        <time>2021-09-19T13:23:12.625Z</time>
      </trkpt>
      <trkpt lat="44.21408" lon="6.26593">
        <ele>1182.6</ele>
        <time>2021-09-19T13:23:15.180Z</time>
      </trkpt>
      <trkpt lat="44.21403" lon="6.26604">
        <ele>1176.8</ele>
        <time>2021-09-19T13:23:17.695Z</time>
      </trkpt>
      <trkpt lat="44.21399" lon="6.26592">
        <ele>1176.6</ele>
        <time>2021-09-19T13:23:21.272Z</time>
      </trkpt>
      <trkpt lat="44.21399" lon="6.26578">
        <ele>1177.5</ele>
        <time>2021-09-19T13:23:57.362Z</time>
      </trkpt>
      <trkpt lat="44.21402" lon="6.26567">
        <ele>1179.6</ele>
        <time>2021-09-19T13:24:46.883Z</time>
      </trkpt>
      <trkpt lat="44.21405" lon="6.26555">
        <ele>1181.3</ele>
        <time>2021-09-19T13:25:40.357Z</time>
      </trkpt>
      <trkpt lat="44.21406" lon="6.26542">
        <ele>1181.3</ele>
        <time>2021-09-19T13:25:54.620Z</time>
      </trkpt>
      <trkpt lat="44.21406" lon="6.26529">
        <ele>1181.1</ele>
        <time>2021-09-19T13:25:58.118Z</time>
      </trkpt>
      <trkpt lat="44.21405" lon="6.26516">
        <ele>1179.6</ele>
        <time>2021-09-19T13:26:00.642Z</time>
      </trkpt>
      <trkpt lat="44.21409" lon="6.26503">
        <ele>1182.5</ele>
        <time>2021-09-19T13:27:00.168Z</time>
      </trkpt>
      <trkpt lat="44.21412" lon="6.2649">
        <ele>1184.6</ele>
        <time>2021-09-19T13:27:57.632Z</time>
      </trkpt>
      <trkpt lat="44.21415" lon="6.26477">
        <ele>1186.5</ele>
        <time>2021-09-19T13:28:55.096Z</time>
      </trkpt>
      <trkpt lat="44.21413" lon="6.26462">
        <ele>1183.6</ele>
        <time>2021-09-19T13:28:58.042Z</time>
      </trkpt>
      <trkpt lat="44.2141" lon="6.26456">
        <ele>1179.9</ele>
        <time>2021-09-19T13:28:59.455Z</time>
      </trkpt>
      <trkpt lat="44.21403" lon="6.26455">
        <ele>1172.4</ele>
        <time>2021-09-19T13:29:01.351Z</time>
      </trkpt>
      <trkpt lat="44.21402" lon="6.26442">
        <ele>1170.5</ele>
        <time>2021-09-19T13:29:03.875Z</time>
      </trkpt>
      <trkpt lat="44.21399" lon="6.2643">
        <ele>1167.1</ele>
        <time>2021-09-19T13:29:06.329Z</time>
      </trkpt>
      <trkpt lat="44.21398" lon="6.26417">
        <ele>1164.4</ele>
        <time>2021-09-19T13:29:08.854Z</time>
      </trkpt>
      <trkpt lat="44.21393" lon="6.26408">
        <ele>1159.2</ele>
        <time>2021-09-19T13:29:11.052Z</time>
      </trkpt>
      <trkpt lat="44.21391" lon="6.26394">
        <ele>1156.9</ele>
        <time>2021-09-19T13:29:13.809Z</time>
      </trkpt>
      <trkpt lat="44.21385" lon="6.26384">
        <ele>1150.9</ele>
        <time>2021-09-19T13:29:16.327Z</time>
      </trkpt>
      <trkpt lat="44.21383" lon="6.26372">
        <ele>1148</ele>
        <time>2021-09-19T13:29:18.706Z</time>
      </trkpt>
      <trkpt lat="44.21384" lon="6.26358">
        <ele>1148.4</ele>
        <time>2021-09-19T13:29:42.812Z</time>
      </trkpt>
      <trkpt lat="44.21384" lon="6.26345">
        <ele>1147.9</ele>
        <time>2021-09-19T13:29:45.363Z</time>
      </trkpt>
      <trkpt lat="44.21383" lon="6.2633">
        <ele>1145.6</ele>
        <time>2021-09-19T13:29:48.272Z</time>
      </trkpt>
      <trkpt lat="44.21379" lon="6.26337">
        <ele>1142.7</ele>
        <time>2021-09-19T13:29:50.001Z</time>
      </trkpt>
      <trkpt lat="44.21371" lon="6.26338">
        <ele>1135.1</ele>
        <time>2021-09-19T13:29:52.164Z</time>
      </trkpt>
      <trkpt lat="44.2137" lon="6.26326">
        <ele>1131.9</ele>
        <time>2021-09-19T13:29:54.497Z</time>
      </trkpt>
      <trkpt lat="44.21366" lon="6.26326">
        <ele>1127.9</ele>
        <time>2021-09-19T13:29:55.575Z</time>
      </trkpt>
      <trkpt lat="44.21362" lon="6.26338">
        <ele>1125.3</ele>
        <time>2021-09-19T13:29:58.130Z</time>
      </trkpt>
      <trkpt lat="44.21357" lon="6.26348">
        <ele>1120.5</ele>
        <time>2021-09-19T13:30:00.484Z</time>
      </trkpt>
      <trkpt lat="44.21353" lon="6.26338">
        <ele>1116</ele>
        <time>2021-09-19T13:30:02.696Z</time>
      </trkpt>
      <trkpt lat="44.21355" lon="6.26325">
        <ele>1116.6</ele>
        <time>2021-09-19T13:30:30.411Z</time>
      </trkpt>
      <trkpt lat="44.21357" lon="6.26311">
        <ele>1116.3</ele>
        <time>2021-09-19T13:30:33.933Z</time>
      </trkpt>
      <trkpt lat="44.21357" lon="6.26297">
        <ele>1114.1</ele>
        <time>2021-09-19T13:30:36.636Z</time>
      </trkpt>
      <trkpt lat="44.21354" lon="6.26296">
        <ele>1110.3</ele>
        <time>2021-09-19T13:30:37.467Z</time>
      </trkpt>
      <trkpt lat="44.2135" lon="6.26309">
        <ele>1108.7</ele>
        <time>2021-09-19T13:30:40.199Z</time>
      </trkpt>
      <trkpt lat="44.21345" lon="6.2632">
        <ele>1105.9</ele>
        <time>2021-09-19T13:30:42.714Z</time>
      </trkpt>
      <trkpt lat="44.21341" lon="6.26318">
        <ele>1101.1</ele>
        <time>2021-09-19T13:30:43.858Z</time>
      </trkpt>
      <trkpt lat="44.21342" lon="6.26304">
        <ele>1099.2</ele>
        <time>2021-09-19T13:30:46.575Z</time>
      </trkpt>
      <trkpt lat="44.21344" lon="6.2629">
        <ele>1098.5</ele>
        <time>2021-09-19T13:30:49.331Z</time>
      </trkpt>
      <trkpt lat="44.21345" lon="6.26274">
        <ele>1097.4</ele>
        <time>2021-09-19T13:30:52.433Z</time>
      </trkpt>
      <trkpt lat="44.21349" lon="6.26261">
        <ele>1098.7</ele>
        <time>2021-09-19T13:31:47.777Z</time>
      </trkpt>
      <trkpt lat="44.21351" lon="6.26246">
        <ele>1098.7</ele>
        <time>2021-09-19T13:32:04.420Z</time>
      </trkpt>
      <trkpt lat="44.2135" lon="6.26232">
        <ele>1096.4</ele>
        <time>2021-09-19T13:32:07.137Z</time>
      </trkpt>
      <trkpt lat="44.21353" lon="6.26219">
        <ele>1097.6</ele>
        <time>2021-09-19T13:32:56.815Z</time>
      </trkpt>
      <trkpt lat="44.21356" lon="6.26204">
        <ele>1098.2</ele>
        <time>2021-09-19T13:33:27.269Z</time>
      </trkpt>
      <trkpt lat="44.21357" lon="6.26191">
        <ele>1098.2</ele>
        <time>2021-09-19T13:33:41.532Z</time>
      </trkpt>
      <trkpt lat="44.21359" lon="6.26177">
        <ele>1098.3</ele>
        <time>2021-09-19T13:33:58.636Z</time>
      </trkpt>
      <trkpt lat="44.21362" lon="6.26165">
        <ele>1099.3</ele>
        <time>2021-09-19T13:34:38.486Z</time>
      </trkpt>
      <trkpt lat="44.21364" lon="6.26151">
        <ele>1099.6</ele>
        <time>2021-09-19T13:34:59.777Z</time>
      </trkpt>
      <trkpt lat="44.21364" lon="6.26139">
        <ele>1097.7</ele>
        <time>2021-09-19T13:35:02.094Z</time>
      </trkpt>
      <trkpt lat="44.21366" lon="6.26128">
        <ele>1097.7</ele>
        <time>2021-09-19T13:35:14.473Z</time>
      </trkpt>
      <trkpt lat="44.21368" lon="6.26115">
        <ele>1097.2</ele>
        <time>2021-09-19T13:35:17.109Z</time>
      </trkpt>
      <trkpt lat="44.2137" lon="6.26103">
        <ele>1096.9</ele>
        <time>2021-09-19T13:35:20.006Z</time>
      </trkpt>
      <trkpt lat="44.2137" lon="6.26088">
        <ele>1094.7</ele>
        <time>2021-09-19T13:35:22.903Z</time>
      </trkpt>
      <trkpt lat="44.21365" lon="6.26093">
        <ele>1091.2</ele>
        <time>2021-09-19T13:35:24.560Z</time>
      </trkpt>
      <trkpt lat="44.21361" lon="6.26104">
        <ele>1089.1</ele>
        <time>2021-09-19T13:35:26.941Z</time>
      </trkpt>
      <trkpt lat="44.21356" lon="6.26113">
        <ele>1086.3</ele>
        <time>2021-09-19T13:35:29.140Z</time>
      </trkpt>
      <trkpt lat="44.21354" lon="6.26126">
        <ele>1085.8</ele>
        <time>2021-09-19T13:35:31.776Z</time>
      </trkpt>
      <trkpt lat="44.21351" lon="6.26138">
        <ele>1084.5</ele>
        <time>2021-09-19T13:35:34.230Z</time>
      </trkpt>
      <trkpt lat="44.21345" lon="6.26149">
        <ele>1081.4</ele>
        <time>2021-09-19T13:35:36.899Z</time>
      </trkpt>
      <trkpt lat="44.21342" lon="6.26163">
        <ele>1079.8</ele>
        <time>2021-09-19T13:35:39.720Z</time>
      </trkpt>
      <trkpt lat="44.21337" lon="6.26158">
        <ele>1074.4</ele>
        <time>2021-09-19T13:35:41.378Z</time>
      </trkpt>
      <trkpt lat="44.21336" lon="6.26145">
        <ele>1071.5</ele>
        <time>2021-09-19T13:35:43.902Z</time>
      </trkpt>
      <trkpt lat="44.21334" lon="6.26133">
        <ele>1068.2</ele>
        <time>2021-09-19T13:35:46.281Z</time>
      </trkpt>
      <trkpt lat="44.21331" lon="6.26139">
        <ele>1066.5</ele>
        <time>2021-09-19T13:35:47.694Z</time>
      </trkpt>
      <trkpt lat="44.21328" lon="6.2612">
        <ele>1061.2</ele>
        <time>2021-09-19T13:35:51.450Z</time>
      </trkpt>
      <trkpt lat="44.2132" lon="6.26122">
        <ele>1054.8</ele>
        <time>2021-09-19T13:35:53.640Z</time>
      </trkpt>
      <trkpt lat="44.21315" lon="6.26112">
        <ele>1049.8</ele>
        <time>2021-09-19T13:35:55.994Z</time>
      </trkpt>
      <trkpt lat="44.21308" lon="6.26112">
        <ele>1044.3</ele>
        <time>2021-09-19T13:35:57.880Z</time>
      </trkpt>
      <trkpt lat="44.21307" lon="6.26102">
        <ele>1041.7</ele>
        <time>2021-09-19T13:35:59.829Z</time>
      </trkpt>
      <trkpt lat="44.21303" lon="6.26102">
        <ele>1038.7</ele>
        <time>2021-09-19T13:36:00.907Z</time>
      </trkpt>
      <trkpt lat="44.21298" lon="6.26099">
        <ele>1034.5</ele>
        <time>2021-09-19T13:36:02.373Z</time>
      </trkpt>
      <trkpt lat="44.21288" lon="6.26113">
        <ele>1027.8</ele>
        <time>2021-09-19T13:36:06.190Z</time>
      </trkpt>
      <trkpt lat="44.21279" lon="6.26105">
        <ele>1019.4</ele>
        <time>2021-09-19T13:36:09.064Z</time>
      </trkpt>
      <trkpt lat="44.21275" lon="6.26084">
        <ele>1013.8</ele>
        <time>2021-09-19T13:36:13.260Z</time>
      </trkpt>
      <trkpt lat="44.2127" lon="6.2608">
        <ele>1009.8</ele>
        <time>2021-09-19T13:36:14.813Z</time>
      </trkpt>
      <trkpt lat="44.21264" lon="6.26094">
        <ele>1006</ele>
        <time>2021-09-19T13:36:17.963Z</time>
      </trkpt>
      <trkpt lat="44.21258" lon="6.261">
        <ele>1002</ele>
        <time>2021-09-19T13:36:19.951Z</time>
      </trkpt>
      <trkpt lat="44.21248" lon="6.26112">
        <ele>994.7</ele>
        <time>2021-09-19T13:36:23.505Z</time>
      </trkpt>
      <trkpt lat="44.21245" lon="6.26124">
        <ele>993.5</ele>
        <time>2021-09-19T13:36:25.959Z</time>
      </trkpt>
      <trkpt lat="44.21236" lon="6.26114">
        <ele>987.5</ele>
        <time>2021-09-19T13:36:29.058Z</time>
      </trkpt>
      <trkpt lat="44.2123" lon="6.26104">
        <ele>982.9</ele>
        <time>2021-09-19T13:36:31.576Z</time>
      </trkpt>
      <trkpt lat="44.21226" lon="6.26102">
        <ele>980.7</ele>
        <time>2021-09-19T13:36:32.721Z</time>
      </trkpt>
      <trkpt lat="44.2122" lon="6.2611">
        <ele>976.9</ele>
        <time>2021-09-19T13:36:34.957Z</time>
      </trkpt>
      <trkpt lat="44.21214" lon="6.26119">
        <ele>973.8</ele>
        <time>2021-09-19T13:36:37.330Z</time>
      </trkpt>
      <trkpt lat="44.21208" lon="6.26123">
        <ele>970.3</ele>
        <time>2021-09-19T13:36:39.122Z</time>
      </trkpt>
      <trkpt lat="44.21201" lon="6.2611">
        <ele>965.5</ele>
        <time>2021-09-19T13:36:42.261Z</time>
      </trkpt>
      <trkpt lat="44.21201" lon="6.26092">
        <ele>964.6</ele>
        <time>2021-09-19T13:36:45.737Z</time>
      </trkpt>
      <trkpt lat="44.21196" lon="6.26098">
        <ele>961.6</ele>
        <time>2021-09-19T13:36:47.514Z</time>
      </trkpt>
      <trkpt lat="44.21188" lon="6.26106">
        <ele>957.1</ele>
        <time>2021-09-19T13:36:50.165Z</time>
      </trkpt>
      <trkpt lat="44.21181" lon="6.26115">
        <ele>953.2</ele>
        <time>2021-09-19T13:36:52.730Z</time>
      </trkpt>
      <trkpt lat="44.21177" lon="6.26102">
        <ele>950.1</ele>
        <time>2021-09-19T13:36:55.461Z</time>
      </trkpt>
      <trkpt lat="44.21171" lon="6.26114">
        <ele>947.1</ele>
        <time>2021-09-19T13:36:58.287Z</time>
      </trkpt>
      <trkpt lat="44.21165" lon="6.26119">
        <ele>943.9</ele>
        <time>2021-09-19T13:37:00.169Z</time>
      </trkpt>
      <trkpt lat="44.21156" lon="6.2612">
        <ele>940.5</ele>
        <time>2021-09-19T13:37:02.602Z</time>
      </trkpt>
      <trkpt lat="44.21149" lon="6.26123">
        <ele>938.5</ele>
        <time>2021-09-19T13:37:04.574Z</time>
      </trkpt>
      <trkpt lat="44.21139" lon="6.26112">
        <ele>934.9</ele>
        <time>2021-09-19T13:37:08.005Z</time>
      </trkpt>
      <trkpt lat="44.21136" lon="6.26097">
        <ele>933.5</ele>
        <time>2021-09-19T13:37:11.012Z</time>
      </trkpt>
      <trkpt lat="44.21137" lon="6.2608">
        <ele>934</ele>
        <time>2021-09-19T13:37:40.765Z</time>
      </trkpt>
      <trkpt lat="44.21141" lon="6.26067">
        <ele>935.8</ele>
        <time>2021-09-19T13:38:40.294Z</time>
      </trkpt>
      <trkpt lat="44.21136" lon="6.26053">
        <ele>935.6</ele>
        <time>2021-09-19T13:38:44.686Z</time>
      </trkpt>
      <trkpt lat="44.21135" lon="6.26039">
        <ele>936.5</ele>
        <time>2021-09-19T13:39:20.814Z</time>
      </trkpt>
      <trkpt lat="44.21132" lon="6.26022">
        <ele>937.4</ele>
        <time>2021-09-19T13:39:59.751Z</time>
      </trkpt>
      <trkpt lat="44.21125" lon="6.2603">
        <ele>935.8</ele>
        <time>2021-09-19T13:40:02.189Z</time>
      </trkpt>
      <trkpt lat="44.21115" lon="6.26036">
        <ele>933.5</ele>
        <time>2021-09-19T13:40:05.121Z</time>
      </trkpt>
      <trkpt lat="44.21103" lon="6.26038">
        <ele>931.3</ele>
        <time>2021-09-19T13:40:08.377Z</time>
      </trkpt>
      <trkpt lat="44.21088" lon="6.26063">
        <ele>923</ele>
        <time>2021-09-19T13:40:14.672Z</time>
      </trkpt>
      <trkpt lat="44.21079" lon="6.26079">
        <ele>919</ele>
        <time>2021-09-19T13:40:18.600Z</time>
      </trkpt>
      <trkpt lat="44.21068" lon="6.2609">
        <ele>919.4</ele>
        <time>2021-09-19T13:40:46.844Z</time>
      </trkpt>
      <trkpt lat="44.21055" lon="6.26096">
        <ele>920.7</ele>
        <time>2021-09-19T13:41:38.493Z</time>
      </trkpt>
      <trkpt lat="44.21038" lon="6.26105">
        <ele>921.6</ele>
        <time>2021-09-19T13:42:26.723Z</time>
      </trkpt>
      <trkpt lat="44.21011" lon="6.26116">
        <ele>921.5</ele>
        <time>2021-09-19T13:43:07.321Z</time>
      </trkpt>
      <trkpt lat="44.20989" lon="6.26127">
        <ele>921.1</ele>
        <time>2021-09-19T13:43:16.558Z</time>
      </trkpt>
      <trkpt lat="44.20975" lon="6.26126">
        <ele>924.1</ele>
        <time>2021-09-19T13:44:38.852Z</time>
      </trkpt>
      <trkpt lat="44.20967" lon="6.26135">
        <ele>923.4</ele>
        <time>2021-09-19T13:44:41.621Z</time>
      </trkpt>
      <trkpt lat="44.20957" lon="6.2614">
        <ele>924.5</ele>
        <time>2021-09-19T13:45:25.171Z</time>
      </trkpt>
      <trkpt lat="44.20946" lon="6.26148">
        <ele>925.4</ele>
        <time>2021-09-19T13:46:03.908Z</time>
      </trkpt>
      <trkpt lat="44.20932" lon="6.26156">
        <ele>927.4</ele>
        <time>2021-09-19T13:47:31.162Z</time>
      </trkpt>
      <trkpt lat="44.2092" lon="6.26154">
        <ele>930.9</ele>
        <time>2021-09-19T13:48:42.109Z</time>
      </trkpt>
      <trkpt lat="44.20901" lon="6.26166">
        <ele>938.6</ele>
        <time>2021-09-19T13:50:44.546Z</time>
      </trkpt>
      <trkpt lat="44.20928" lon="6.26152">
        <ele>929.1</ele>
        <time>2021-09-19T13:50:52.306Z</time>
      </trkpt>
      <trkpt lat="44.20914" lon="6.26151">
        <ele>933.3</ele>
        <time>2021-09-19T13:52:14.600Z</time>
      </trkpt>
      <trkpt lat="44.20919" lon="6.26187">
        <ele>929.6</ele>
        <time>2021-09-19T13:52:21.681Z</time>
      </trkpt>
      <trkpt lat="44.20934" lon="6.26203">
        <ele>924.4</ele>
        <time>2021-09-19T13:52:26.768Z</time>
      </trkpt>
      <trkpt lat="44.2095" lon="6.26209">
        <ele>918.7</ele>
        <time>2021-09-19T13:52:31.231Z</time>
      </trkpt>
      <trkpt lat="44.20978" lon="6.26205">
        <ele>908.3</ele>
        <time>2021-09-19T13:52:38.814Z</time>
      </trkpt>
      <trkpt lat="44.20996" lon="6.26215">
        <ele>900.5</ele>
        <time>2021-09-19T13:52:44.033Z</time>
      </trkpt>
      <trkpt lat="44.21004" lon="6.26207">
        <ele>900.8</ele>
        <time>2021-09-19T13:53:04.816Z</time>
      </trkpt>
      <trkpt lat="44.21002" lon="6.26223">
        <ele>898.3</ele>
        <time>2021-09-19T13:53:07.952Z</time>
      </trkpt>
      <trkpt lat="44.20992" lon="6.26279">
        <ele>896.5</ele>
        <time>2021-09-19T13:53:20.334Z</time>
      </trkpt>
      <trkpt lat="44.20983" lon="6.263">
        <ele>899.2</ele>
        <time>2021-09-19T13:55:03.290Z</time>
      </trkpt>
      <trkpt lat="44.20969" lon="6.26336">
        <ele>904</ele>
        <time>2021-09-19T13:57:55.634Z</time>
      </trkpt>
      <trkpt lat="44.20966" lon="6.26356">
        <ele>903.3</ele>
        <time>2021-09-19T13:57:59.852Z</time>
      </trkpt>
      <trkpt lat="44.20975" lon="6.26395">
        <ele>895</ele>
        <time>2021-09-19T13:58:07.763Z</time>
      </trkpt>
      <trkpt lat="44.20981" lon="6.26432">
        <ele>888.5</ele>
        <time>2021-09-19T13:58:15.089Z</time>
      </trkpt>
      <trkpt lat="44.20983" lon="6.26446">
        <ele>886.1</ele>
        <time>2021-09-19T13:58:17.845Z</time>
      </trkpt>
      <trkpt lat="44.20981" lon="6.26465">
        <ele>886</ele>
        <time>2021-09-19T13:58:24.025Z</time>
      </trkpt>
      <trkpt lat="44.20978" lon="6.26501">
        <ele>884.6</ele>
        <time>2021-09-19T13:58:31.123Z</time>
      </trkpt>
      <trkpt lat="44.2098" lon="6.2653">
        <ele>880.3</ele>
        <time>2021-09-19T13:58:36.749Z</time>
      </trkpt>
      <trkpt lat="44.2098" lon="6.26552">
        <ele>877.2</ele>
        <time>2021-09-19T13:58:40.997Z</time>
      </trkpt>
      <trkpt lat="44.20984" lon="6.26571">
        <ele>873.1</ele>
        <time>2021-09-19T13:58:44.821Z</time>
      </trkpt>
      <trkpt lat="44.20981" lon="6.26588">
        <ele>872.6</ele>
        <time>2021-09-19T13:58:48.709Z</time>
      </trkpt>
      <trkpt lat="44.20972" lon="6.26612">
        <ele>875</ele>
        <time>2021-09-19T14:00:28.520Z</time>
      </trkpt>
      <trkpt lat="44.20966" lon="6.26626">
        <ele>876.5</ele>
        <time>2021-09-19T14:01:32.410Z</time>
      </trkpt>
      <trkpt lat="44.20961" lon="6.26637">
        <ele>877.8</ele>
        <time>2021-09-19T14:02:27.219Z</time>
      </trkpt>
      <trkpt lat="44.20955" lon="6.26655">
        <ele>879.2</ele>
        <time>2021-09-19T14:03:22.667Z</time>
      </trkpt>
      <trkpt lat="44.20947" lon="6.26667">
        <ele>882.1</ele>
        <time>2021-09-19T14:04:31.626Z</time>
      </trkpt>
      <trkpt lat="44.20947" lon="6.2668">
        <ele>880.7</ele>
        <time>2021-09-19T14:04:34.136Z</time>
      </trkpt>
      <trkpt lat="44.20948" lon="6.26694">
        <ele>878.5</ele>
        <time>2021-09-19T14:04:36.853Z</time>
      </trkpt>
      <trkpt lat="44.20949" lon="6.26708">
        <ele>876.3</ele>
        <time>2021-09-19T14:04:39.570Z</time>
      </trkpt>
      <trkpt lat="44.20949" lon="6.26726">
        <ele>874.6</ele>
        <time>2021-09-19T14:04:43.046Z</time>
      </trkpt>
      <trkpt lat="44.20948" lon="6.2674">
        <ele>873.2</ele>
        <time>2021-09-19T14:04:45.762Z</time>
      </trkpt>
      <trkpt lat="44.2095" lon="6.26753">
        <ele>871</ele>
        <time>2021-09-19T14:04:48.330Z</time>
      </trkpt>
      <trkpt lat="44.20947" lon="6.26767">
        <ele>870.8</ele>
        <time>2021-09-19T14:04:52.372Z</time>
      </trkpt>
      <trkpt lat="44.20946" lon="6.2678">
        <ele>869.8</ele>
        <time>2021-09-19T14:04:54.897Z</time>
      </trkpt>
      <trkpt lat="44.20945" lon="6.26794">
        <ele>868.7</ele>
        <time>2021-09-19T14:04:57.614Z</time>
      </trkpt>
      <trkpt lat="44.20941" lon="6.26808">
        <ele>869</ele>
        <time>2021-09-19T14:05:19.665Z</time>
      </trkpt>
      <trkpt lat="44.20936" lon="6.2682">
        <ele>869.6</ele>
        <time>2021-09-19T14:05:48.060Z</time>
      </trkpt>
      <trkpt lat="44.20931" lon="6.26835">
        <ele>869.5</ele>
        <time>2021-09-19T14:05:53.298Z</time>
      </trkpt>
      <trkpt lat="44.20926" lon="6.26847">
        <ele>867.6</ele>
        <time>2021-09-19T14:05:55.979Z</time>
      </trkpt>
      <trkpt lat="44.2092" lon="6.2686">
        <ele>865.5</ele>
        <time>2021-09-19T14:05:58.964Z</time>
      </trkpt>
      <trkpt lat="44.20917" lon="6.26873">
        <ele>862.3</ele>
        <time>2021-09-19T14:06:01.602Z</time>
      </trkpt>
      <trkpt lat="44.20913" lon="6.26886">
        <ele>859.5</ele>
        <time>2021-09-19T14:06:04.333Z</time>
      </trkpt>
      <trkpt lat="44.20905" lon="6.26898">
        <ele>858.7</ele>
        <time>2021-09-19T14:06:07.498Z</time>
      </trkpt>
      <trkpt lat="44.20898" lon="6.26908">
        <ele>858.8</ele>
        <time>2021-09-19T14:06:24.281Z</time>
      </trkpt>
      <trkpt lat="44.20887" lon="6.26919">
        <ele>860.3</ele>
        <time>2021-09-19T14:07:24.168Z</time>
      </trkpt>
      <trkpt lat="44.20876" lon="6.26926">
        <ele>863.5</ele>
        <time>2021-09-19T14:08:35.144Z</time>
      </trkpt>
      <trkpt lat="44.20864" lon="6.26921">
        <ele>869.5</ele>
        <time>2021-09-19T14:09:48.665Z</time>
      </trkpt>
      <trkpt lat="44.20854" lon="6.26943">
        <ele>868.2</ele>
        <time>2021-09-19T14:09:53.695Z</time>
      </trkpt>
      <trkpt lat="44.20846" lon="6.26964">
        <ele>866</ele>
        <time>2021-09-19T14:09:58.288Z</time>
      </trkpt>
      <trkpt lat="44.2084" lon="6.26981">
        <ele>863.7</ele>
        <time>2021-09-19T14:10:01.947Z</time>
      </trkpt>
      <trkpt lat="44.20835" lon="6.26996">
        <ele>861.6</ele>
        <time>2021-09-19T14:10:05.141Z</time>
      </trkpt>
      <trkpt lat="44.20827" lon="6.27006">
        <ele>862.8</ele>
        <time>2021-09-19T14:10:53.134Z</time>
      </trkpt>
      <trkpt lat="44.20816" lon="6.2702">
        <ele>864.2</ele>
        <time>2021-09-19T14:11:48.824Z</time>
      </trkpt>
      <trkpt lat="44.20811" lon="6.27032">
        <ele>863.6</ele>
        <time>2021-09-19T14:11:51.403Z</time>
      </trkpt>
      <trkpt lat="44.20807" lon="6.27044">
        <ele>862.1</ele>
        <time>2021-09-19T14:11:53.959Z</time>
      </trkpt>
      <trkpt lat="44.20809" lon="6.27057">
        <ele>858.6</ele>
        <time>2021-09-19T14:11:56.527Z</time>
      </trkpt>
      <trkpt lat="44.20813" lon="6.27069">
        <ele>855</ele>
        <time>2021-09-19T14:11:59.082Z</time>
      </trkpt>
      <trkpt lat="44.20809" lon="6.27083">
        <ele>853</ele>
        <time>2021-09-19T14:12:01.992Z</time>
      </trkpt>
      <trkpt lat="44.20807" lon="6.27097">
        <ele>851.4</ele>
        <time>2021-09-19T14:12:04.749Z</time>
      </trkpt>
      <trkpt lat="44.20805" lon="6.27109">
        <ele>850</ele>
        <time>2021-09-19T14:12:07.128Z</time>
      </trkpt>
      <trkpt lat="44.20801" lon="6.2712">
        <ele>849.1</ele>
        <time>2021-09-19T14:12:09.510Z</time>
      </trkpt>
      <trkpt lat="44.208" lon="6.27131">
        <ele>847.7</ele>
        <time>2021-09-19T14:12:11.651Z</time>
      </trkpt>
      <trkpt lat="44.20802" lon="6.2714">
        <ele>846</ele>
        <time>2021-09-19T14:12:13.471Z</time>
      </trkpt>
      <trkpt lat="44.20792" lon="6.27143">
        <ele>847</ele>
        <time>2021-09-19T14:12:53.092Z</time>
      </trkpt>
      <trkpt lat="44.20782" lon="6.27145">
        <ele>847.8</ele>
        <time>2021-09-19T14:13:26.334Z</time>
      </trkpt>
      <trkpt lat="44.20773" lon="6.27147">
        <ele>848.7</ele>
        <time>2021-09-19T14:14:01.972Z</time>
      </trkpt>
      <trkpt lat="44.20763" lon="6.27147">
        <ele>850</ele>
        <time>2021-09-19T14:14:57.901Z</time>
      </trkpt>
      <trkpt lat="44.20759" lon="6.27157">
        <ele>848.3</ele>
        <time>2021-09-19T14:15:00.112Z</time>
      </trkpt>
      <trkpt lat="44.20758" lon="6.27169">
        <ele>845.7</ele>
        <time>2021-09-19T14:15:02.445Z</time>
      </trkpt>
      <trkpt lat="44.20748" lon="6.27168">
        <ele>846.6</ele>
        <time>2021-09-19T14:15:38.529Z</time>
      </trkpt>
      <trkpt lat="44.20738" lon="6.27164">
        <ele>847.3</ele>
        <time>2021-09-19T14:16:09.750Z</time>
      </trkpt>
      <trkpt lat="44.20728" lon="6.27165">
        <ele>846.7</ele>
        <time>2021-09-19T14:16:12.359Z</time>
      </trkpt>
      <trkpt lat="44.20723" lon="6.27175">
        <ele>843.7</ele>
        <time>2021-09-19T14:16:14.714Z</time>
      </trkpt>
      <trkpt lat="44.20715" lon="6.27177">
        <ele>842.9</ele>
        <time>2021-09-19T14:16:16.903Z</time>
      </trkpt>
      <trkpt lat="44.20703" lon="6.27203">
        <ele>835.6</ele>
        <time>2021-09-19T14:16:22.875Z</time>
      </trkpt>
      <trkpt lat="44.20684" lon="6.27263">
        <ele>818.5</ele>
        <time>2021-09-19T14:16:35.542Z</time>
      </trkpt>
      <trkpt lat="44.20674" lon="6.27277">
        <ele>813.3</ele>
        <time>2021-09-19T14:16:39.358Z</time>
      </trkpt>
      <trkpt lat="44.20676" lon="6.27288">
        <ele>809.3</ele>
        <time>2021-09-19T14:16:41.550Z</time>
      </trkpt>
      <trkpt lat="44.20681" lon="6.27299">
        <ele>805.6</ele>
        <time>2021-09-19T14:16:44.065Z</time>
      </trkpt>
      <trkpt lat="44.20688" lon="6.2731">
        <ele>801.7</ele>
        <time>2021-09-19T14:16:46.906Z</time>
      </trkpt>
      <trkpt lat="44.20687" lon="6.2733">
        <ele>794.8</ele>
        <time>2021-09-19T14:16:50.777Z</time>
      </trkpt>
      <trkpt lat="44.20686" lon="6.27343">
        <ele>796.5</ele>
        <time>2021-09-19T14:17:45.797Z</time>
      </trkpt>
      <trkpt lat="44.20681" lon="6.27363">
        <ele>802.5</ele>
        <time>2021-09-19T14:19:14.931Z</time>
      </trkpt>
      <trkpt lat="44.2069" lon="6.27368">
        <ele>804.8</ele>
        <time>2021-09-19T14:20:11.800Z</time>
      </trkpt>
      <trkpt lat="44.20699" lon="6.27373">
        <ele>807</ele>
        <time>2021-09-19T14:21:08.670Z</time>
      </trkpt>
      <trkpt lat="44.20709" lon="6.2738">
        <ele>809.6</ele>
        <time>2021-09-19T14:22:14.351Z</time>
      </trkpt>
      <trkpt lat="44.20718" lon="6.27384">
        <ele>811.7</ele>
        <time>2021-09-19T14:23:09.802Z</time>
      </trkpt>
      <trkpt lat="44.20728" lon="6.27386">
        <ele>813.2</ele>
        <time>2021-09-19T14:24:09.106Z</time>
      </trkpt>
      <trkpt lat="44.20737" lon="6.27388">
        <ele>814.3</ele>
        <time>2021-09-19T14:24:54.291Z</time>
      </trkpt>
      <trkpt lat="44.20747" lon="6.27387">
        <ele>814.6</ele>
        <time>2021-09-19T14:25:15.311Z</time>
      </trkpt>
      <trkpt lat="44.20757" lon="6.27388">
        <ele>815.9</ele>
        <time>2021-09-19T14:26:11.128Z</time>
      </trkpt>
      <trkpt lat="44.20766" lon="6.27386">
        <ele>816.1</ele>
        <time>2021-09-19T14:26:28.488Z</time>
      </trkpt>
      <trkpt lat="44.20786" lon="6.27381">
        <ele>792.8</ele>
        <time>2021-09-19T14:26:33.962Z</time>
      </trkpt>
      <trkpt lat="44.20805" lon="6.27374">
        <ele>794.8</ele>
        <time>2021-09-19T14:27:53.108Z</time>
      </trkpt>
      <trkpt lat="44.20819" lon="6.27367">
        <ele>798.2</ele>
        <time>2021-09-19T14:29:20.414Z</time>
      </trkpt>
      <trkpt lat="44.20826" lon="6.27353">
        <ele>795.3</ele>
        <time>2021-09-19T14:29:23.710Z</time>
      </trkpt>
      <trkpt lat="44.20833" lon="6.27334">
        <ele>789.6</ele>
        <time>2021-09-19T14:29:27.835Z</time>
      </trkpt>
      <trkpt lat="44.20847" lon="6.27322">
        <ele>792.8</ele>
        <time>2021-09-19T14:31:04.295Z</time>
      </trkpt>
      <trkpt lat="44.20855" lon="6.27304">
        <ele>789</ele>
        <time>2021-09-19T14:31:08.385Z</time>
      </trkpt>
      <trkpt lat="44.20869" lon="6.27293">
        <ele>791.3</ele>
        <time>2021-09-19T14:32:42.710Z</time>
      </trkpt>
      <trkpt lat="44.2089" lon="6.2727">
        <ele>790.6</ele>
        <time>2021-09-19T14:32:52.212Z</time>
      </trkpt>
      <trkpt lat="44.20912" lon="6.27259">
        <ele>791.3</ele>
        <time>2021-09-19T14:33:41.229Z</time>
      </trkpt>
      <trkpt lat="44.20941" lon="6.27252">
        <ele>791.6</ele>
        <time>2021-09-19T14:34:30.635Z</time>
      </trkpt>
      <trkpt lat="44.20961" lon="6.27248">
        <ele>790.1</ele>
        <time>2021-09-19T14:34:36.078Z</time>
      </trkpt>
      <trkpt lat="44.20995" lon="6.27265">
        <ele>795.4</ele>
        <time>2021-09-19T14:38:08.106Z</time>
      </trkpt>
      <trkpt lat="44.21021" lon="6.27278">
        <ele>793.3</ele>
        <time>2021-09-19T14:38:15.547Z</time>
      </trkpt>
      <trkpt lat="44.21044" lon="6.27296">
        <ele>794.8</ele>
        <time>2021-09-19T14:39:29.041Z</time>
      </trkpt>
      <trkpt lat="44.21064" lon="6.27312">
        <ele>795.2</ele>
        <time>2021-09-19T14:40:10.760Z</time>
      </trkpt>
      <trkpt lat="44.21083" lon="6.27324">
        <ele>793.8</ele>
        <time>2021-09-19T14:40:16.379Z</time>
      </trkpt>
      <trkpt lat="44.21104" lon="6.2734">
        <ele>792.5</ele>
        <time>2021-09-19T14:40:22.893Z</time>
      </trkpt>
      <trkpt lat="44.21119" lon="6.27368">
        <ele>800</ele>
        <time>2021-09-19T14:42:49.982Z</time>
      </trkpt>
      <trkpt lat="44.21135" lon="6.27394">
        <ele>801.7</ele>
        <time>2021-09-19T14:44:04.762Z</time>
      </trkpt>
      <trkpt lat="44.21148" lon="6.27419">
        <ele>801.6</ele>
        <time>2021-09-19T14:44:36.275Z</time>
      </trkpt>
      <trkpt lat="44.2116" lon="6.27444">
        <ele>800.7</ele>
        <time>2021-09-19T14:44:42.838Z</time>
      </trkpt>
      <trkpt lat="44.2117" lon="6.27474">
        <ele>802.4</ele>
        <time>2021-09-19T14:45:56.401Z</time>
      </trkpt>
      <trkpt lat="44.21188" lon="6.27499">
        <ele>803.5</ele>
        <time>2021-09-19T14:47:00.476Z</time>
      </trkpt>
      <trkpt lat="44.21207" lon="6.27518">
        <ele>804.7</ele>
        <time>2021-09-19T14:48:03.235Z</time>
      </trkpt>
      <trkpt lat="44.2124" lon="6.27545">
        <ele>806</ele>
        <time>2021-09-19T14:49:27.773Z</time>
      </trkpt>
      <trkpt lat="44.21275" lon="6.27567">
        <ele>805.5</ele>
        <time>2021-09-19T14:49:43.739Z</time>
      </trkpt>
      <trkpt lat="44.2131" lon="6.27591">
        <ele>805</ele>
        <time>2021-09-19T14:50:00.000Z</time>
      </trkpt>
    </trkseg>
  </trk>
</gpx>